(33) 110km Uomini/Herren 37-42 anni

Maratona dles Dolomites 2003 - (33) 110km Uomini/Herren 37-42 anni

 posto nome/Name            an località/Ort         squadra/Team                         tempo     ritardo    pett  assolute         km/h ¦  Passo Pordoi ¦      Corvara ¦   Campolongo ¦no Campolongo ¦    Falzarego ¦
-----------------------------------------------------------------------------------------------------------------------------------------------------------------------------------------------------------------------
    1. Penasa Gianni        61 Caldes               Italy Garden                     3:37.32,7       -----   (174)  M110     2.    30,338 ¦    58.28    1.¦ 1:58.25    1.¦ 2:17.03    1.¦   18.37    1.¦ 3:07.43    1.¦
    2. Koch Matthias        63 D-Heusenstamm        TV Hergershausen                 3:46.50,9      9.18,2    (93)  M110     5.    29,094 ¦  1:00.13    2.¦ 2:00.59    2.¦ 2:20.28    2.¦   19.28    4.¦ 3:16.05    2.¦
    3. Nicoletto Stefano    65 Noventa Vicentina (V D-Team                           3:51.17,8     13.45,1  (2251)  M110     10.   28,534 ¦  1:02.03    4.¦ 2:03.56    4.¦ 2:23.19    3.¦   19.22    3.¦ 3:19.30    3.¦
    4. Giordani Aliano      61 Lucca                SRM Team                         3:52.34,2     15.01,5    (67)  M110     12.   28,378 ¦  1:01.07    3.¦ 2:03.25    3.¦ 2:23.38    4.¦   20.13    9.¦ 3:20.28    4.¦
    5. Zironi Tiziano       64 Formigine            Team Iaccobike - Avis            3:54.17,2     16.44,5  (1801)  M110     15.   28,170 ¦  1:02.47    5.¦ 2:06.37    5.¦ 2:25.54    5.¦   19.16    2.¦ 3:23.25    5.¦
    6. Triboli Fabio        66 Mandello del Lario   Bike Team Mandella               4:02.16,6     24.43,9   (115)  M110     27.   27,241 ¦  1:05.21    6.¦ 2:09.59    6.¦ 2:29.54    6.¦   19.54    7.¦ 3:29.48    6.¦
    7. Perzl Bernhard       65 A-Waidring           INTERSPORT KIENPOITNER           4:04.26,6     26.53,9  (2137)  M110     33.   27,000 ¦  1:07.18   12.¦ 2:13.05    8.¦ 2:32.54    7.¦   19.48    6.¦ 3:31.38    7.¦
    8. Guareschi Paolo      66 Sissa ( PR )         Road and track Rancing Team      4:06.04,3     28.31,6    (76)  M110     36.   26,821 ¦  1:06.17    8.¦ 2:13.20   11.¦ 2:33.52    9.¦   20.31   10.¦ 3:33.59    8.¦
    9. Kargruber Stefan     65 Welsberg             Green Valley Team                4:08.44,1     31.11,4  (7742)  M110     43.   26,534 ¦  1:09.26   26.¦ 2:13.43   12.¦ 2:33.30    8.¦   19.46    5.¦ 3:34.06    9.¦
   10. Ceccato Stefano      65 Treviso              Granfondo Pinarello              4:09.17,2     31.44,5  (1380)  M110     45.   26,475 ¦  1:07.46   14.¦ 2:14.46   15.¦ 2:35.50   16.¦   21.04   18.¦ 3:37.12   12.¦
   11. Ceccherini Andrea    66 Bibbiena             King bike                        4:09.29,5     31.56,8  (1114)  M110     46.   26,453 ¦  1:07.33   13.¦ 2:14.25   13.¦ 2:35.24   13.¦   20.59   14.¦ 3:37.26   13.¦
   12. Debiasi Paolo        65 Cles                 A.C. FLAMINGO CLES               4:09.48,1     32.15,4  (2007)  M110     48.   26,420 ¦  1:07.13   11.¦ 2:13.19   10.¦ 2:34.11   12.¦   20.51   12.¦ 3:36.53   11.¦
   13. Lerf Hubert          61 D-Ransberg           TSV Günzach                      4:09.52,5     32.19,8  (2076)  M110     49.   26,413 ¦  1:07.51   15.¦ 2:14.52   16.¦ 2:35.50   15.¦   20.58   13.¦ 3:37.55   14.¦
   14. Varisco Marco        66 Treviso              Granfondo Pinarello              4:11.36,4     34.03,7  (1375)  M110     54.   26,231 ¦  1:07.10   10.¦ 2:12.58    7.¦ 2:33.59   10.¦   21.00   15.¦ 3:36.35   10.¦
   15. Coli Francesco       64 S.Casciano Val di Pe GS La Lumaca                     4:11.40,3     34.07,6  (1764)  M110     55.   26,224 ¦  1:06.58    9.¦ 2:14.36   14.¦ 2:35.45   14.¦   21.09   20.¦ 3:38.51   17.¦
   16. Zanchetta Moreno     64 Vittorio Veneto      G.S. Vittorio V. Cieffe Forni    4:12.04,6     34.31,9  (2223)  M110     56.   26,182 ¦  1:08.14   17.¦ 2:15.59   17.¦ 2:37.14   17.¦   21.15   23.¦ 3:38.28   15.¦
   17. Dissegna Andrea      64 Rossano Veneto       Granfondo Pinarello              4:13.42,7     36.10,0  (2273)  M110     61.   26,013 ¦  1:06.11    7.¦ 2:13.09    9.¦ 2:34.10   11.¦   21.00   15.¦ 3:38.38   16.¦
   18. Papotti Roberto      66 Albizzate            Coppi Racing Team                4:15.05,7     37.33,0  (1255)  M110     66.   25,872 ¦  1:09.23   24.¦ 2:17.44   21.¦ 2:40.05   21.¦   22.21   42.¦ 3:42.45   18.¦
   19. Bendinelli Luca      63 SMR-Pescia           Cicloamatori  Buggiano           4:16.25,7     38.53,0  (2788)  M110     74.   25,738 ¦  1:11.04   34.¦ 2:19.13   24.¦ 2:40.18   24.¦   21.04   17.¦ 3:42.56   19.¦
   20. Bonadio Umberto      66 Bolzano              GS Multipower                    4:17.36,7     40.04,0   (296)  M110     82.   25,619 ¦  1:08.31   19.¦ 2:16.58   20.¦ 2:39.09   19.¦   22.10   35.¦ 3:44.10   22.¦
   21. Haas Steffen         65 D-Stuttgart          Team Strassacker                 4:17.58,3     40.25,6  (2054)  M110     86.   25,584 ¦  1:07.52   16.¦ 2:16.37   19.¦ 2:38.35   18.¦   21.57   31.¦ 3:43.36   21.¦
   22. Faustinoni Massimo   65 Lodi                 TEAM DILIE' CICLI                4:18.56,7     41.24,0  (2025)  M110     88.   25,488 ¦  1:09.58   28.¦ 2:19.41   26.¦ 2:40.14   23.¦   20.32   11.¦ 3:43.13   20.¦
   23. Salani Riccardo      66 Montelupo Fiorentino Bhoss King Bike                  4:19.06,1     41.33,4  (8662)  M110     90.   25,472 ¦     ----  ----¦ 2:21.04   30.¦ 2:42.17   28.¦   21.13   22.¦ 3:45.07   26.¦
   24. Peratello Andrea     64 Ferrara              G.S. Cicli De Franceschi, Ferr   4:19.07,2     41.34,5  (2135)  M110     92.   25,470 ¦  1:10.57   33.¦ 2:19.21   25.¦ 2:41.41   27.¦   22.20   41.¦ 3:46.02   27.¦
   25. Casalini Franco      63 CAPANNOLI (PI)       CICLI BERTINI                    4:19.16,3     41.43,6  (1981)  M110     94.   25,455 ¦  1:09.15   22.¦ 2:18.02   22.¦ 2:40.08   22.¦   22.06   33.¦ 3:44.31   24.¦
   26. Zanchetton Alessandr 66 Silea                2WD Playlife Wheels              4:19.55,4     42.22,7  (3272)  M110     98.   25,392 ¦  1:14.42   50.¦ 2:22.26   36.¦ 2:43.43   31.¦   21.17   24.¦ 3:46.09   28.¦
   27. Wüthrich Bernhard    65 CH-Jegenstorf        NSCG.CH                          4:20.24,6     42.51,9  (9277)  M110     101.  25,344 ¦  1:14.52   51.¦ 2:20.46   29.¦ 2:40.59   26.¦   20.12    8.¦ 3:44.26   23.¦
   28. Cornolti Paolo       61 Gorle                GS TEAM MOROTTI                  4:20.26,0     42.53,3  (1994)  M110     102.  25,342 ¦  1:09.12   21.¦ 2:18.29   23.¦ 2:40.36   25.¦   22.07   34.¦ 3:45.00   25.¦
   29. Cullati Massimo      64 Torino               Team Vezza Brunero               4:23.08,0     45.35,3  (3305)  M110     118.  25,082 ¦  1:12.24   39.¦ 2:21.54   33.¦ 2:44.16   34.¦   22.22   43.¦ 3:48.45   31.¦
   30. Cassanego Silvio     62 Milano               Ciclo Team Canzo                 4:23.43,0     46.10,3  (6922)  M110     123.  25,026 ¦  1:14.58   53.¦ 2:24.17   42.¦ 2:45.51   38.¦   21.33   28.¦ 3:49.53   33.¦
   31. Garofano Marco       62 Buguggiate           Coppi Racing Team                4:23.58,0     46.25,3  (1256)  M110     124.  25,003 ¦  1:10.34   31.¦ 2:19.58   27.¦ 2:42.23   29.¦   22.25   44.¦ 3:48.30   29.¦
   32. Pezzini Maurizio     66 Lido di Camaiore     Pezzini Bike Official Team       4:24.05,8     46.33,1  (2968)  M110     125.  24,990 ¦  1:10.52   32.¦ 2:22.17   35.¦ 2:43.37   30.¦   21.19   25.¦ 3:48.30   29.¦
   33. Brida Anton          63 A-Oberperfuss        Radclub Hochpustertal            4:26.52,2     49.19,5  (6817)  M110     142.  24,731 ¦  1:13.59   46.¦ 2:24.49   43.¦ 2:47.04   42.¦   22.14   37.¦ 3:52.56   38.¦
   34. Vivenzio Massimilian 66 Rovagnate LC         GS Perego                        4:27.02,9     49.30,2  (1305)  M110     143.  24,714 ¦  1:08.44   20.¦ 2:16.23   18.¦ 2:39.11   20.¦   22.48   56.¦ 3:49.31   32.¦
   35. Marzo Fabrizio       65 Treviso              Enervit                          4:27.06,8     49.34,1  (1847)  M110     145.  24,708 ¦     ----  ----¦    ----  ----¦    ----  ----¦    ----  ----¦ 3:51.19   35.¦
   36. Stucchi Diego        62 Trezzo sull'Adda     GS cicli quadri simone           4:27.36,3     50.03,6  (1116)  M110     149.  24,663 ¦  1:09.16   23.¦ 2:20.41   28.¦ 2:44.01   33.¦   23.20   69.¦ 3:51.51   36.¦
   37. Marani  Maurizio     61 Faenza               Atletica 85 Faenza               4:27.50,6     50.17,9  (1276)  M110     151.  24,641 ¦  1:09.52   27.¦ 2:21.53   32.¦ 2:43.44   32.¦   21.51   30.¦ 3:50.17   34.¦
   38. Mura Giovanni        64 Bussolengo           G.S. ENJOY TEAM                  4:27.53,8     50.21,1  (3985)  M110     152.  24,636 ¦     ----  ----¦ 2:27.02   52.¦ 2:48.25   45.¦   21.23   27.¦ 3:54.21   41.¦
   39. Braghetto Nereo      63 Pescantina           GS Enjoy Team                    4:27.56,2     50.23,5  (2637)  M110     154.  24,632 ¦  1:13.32   44.¦ 2:26.18   50.¦ 2:48.31   46.¦   22.12   36.¦ 3:54.26   42.¦
   40. Molinari Michele     65 Azzate               Coppi Racing Team                4:28.12,6     50.39,9  (1254)  M110     155.  24,607 ¦  1:12.19   38.¦ 2:23.07   38.¦ 2:45.52   39.¦   22.44   52.¦ 3:52.42   37.¦
   41. Pedretti Alberto     65 noceto parma         GS Torrile                       4:28.41,4     51.08,7  (1137)  M110     159.  24,563 ¦  1:12.01   36.¦ 2:23.09   39.¦ 2:46.09   40.¦   23.00   63.¦ 3:53.34   40.¦
   42. Galli Arturo         65 CANZO (CO)           CICLO TEAM CANZO                 4:29.13,4     51.40,7  (3648)  M110     163.  24,514 ¦  1:20.01  101.¦ 2:31.28   63.¦ 2:53.56   64.¦   22.27   46.¦ 3:56.02   48.¦
   43. Cialdella Donato     66 CH-Bremgarten                                         4:29.21,6     51.48,9  (1985)  M110     164.  24,502 ¦  1:15.12   54.¦ 2:28.09   57.¦ 2:51.38   59.¦   23.29   79.¦ 3:54.28   43.¦
   44. De Lazzari Agostino  66 Paese TV             GC Santa Cristina                4:29.30,8     51.58,1  (1884)  M110     165.  24,488 ¦  1:14.35   49.¦ 2:27.28   54.¦ 2:50.37   53.¦   23.09   65.¦ 3:55.48   47.¦
   45. Caprile Amedeo       66 Genova               U.C. GENOVESE                    4:29.58,0     52.25,3  (3550)  M110     167.  24,447 ¦  1:13.23   42.¦ 2:24.59   45.¦ 2:47.49   44.¦   22.50   58.¦ 3:55.19   45.¦
   46. Ferrero Pietro       63 Alba                                                  4:30.34,5     53.01,8   (154)  M110     170.  24,392 ¦  1:09.23   25.¦ 2:23.57   40.¦ 2:46.42   41.¦   22.45   53.¦ 3:55.14   44.¦
   47. Huber Manfred        62 D-Fürstenstein       RSV-Passau                       4:30.38,2     53.05,5  (2064)  M110     172.  24,386 ¦  1:12.39   41.¦ 2:32.40   77.¦ 2:55.22   66.¦   22.42   50.¦ 3:57.29   56.¦
   48. Giacomelli Stefano   66 Udine                Banca Popolare FriulAdria        4:30.58,2     53.25,5  (2041)  M110     178.  24,356 ¦  1:16.25   61.¦ 2:27.19   53.¦ 2:50.55   56.¦   23.35   88.¦ 3:57.22   55.¦
   49. Vaccher Flavio       63 San Vito al Tagliame UC Sanvitese Libertas            4:31.02,2     53.29,5  (1111)  M110     181.  24,350 ¦  1:15.13   55.¦ 2:28.26   58.¦ 2:50.57   57.¦   22.31   47.¦ 3:56.42   53.¦
   50. Meroni Pietro Paolo  64 CANZO (CO)           CICLO TEAM CANZO                 4:31.06,2     53.33,5  (3665)  M110     182.  24,344 ¦  1:20.01  100.¦ 2:31.36   64.¦ 2:53.55   63.¦   22.19   39.¦ 3:56.27   50.¦
   51. Pugnetti Giorgio     63 Tolmezzo             Carnia Bike                      4:31.09,8     53.37,1  (1781)  M110     183.  24,339 ¦  1:13.26   43.¦ 2:25.30   47.¦ 2:49.06   50.¦   23.36   90.¦ 3:56.34   51.¦
   52. Girardi Andrea       65 Fornace              Bren Team Trento                 4:31.16,1     53.43,4  (2672)  M110     185.  24,330 ¦  1:19.52   99.¦ 2:33.05   82.¦ 2:54.14   65.¦   21.09   21.¦ 3:55.31   46.¦
   53. Unterkircher Werner  61 A-St. Jakob/Deferegg SV St. Jakob                     4:32.24,8     54.52,1  (2204)  M110     197.  24,227 ¦  1:18.29   79.¦ 2:31.36   65.¦ 2:53.51   62.¦   22.15   38.¦ 3:58.53   59.¦
   54. Rinaldi Francesco    64 San Casciano Val di  GS La Lumaca                     4:33.48,3     56.15,6  (5059)  M110     205.  24,104 ¦  1:12.05   37.¦ 2:23.04   37.¦ 2:45.51   37.¦   22.47   55.¦ 3:53.31   39.¦
   55. Maroni Carlo         64 buguggiate (va)      Team Emmedue                     4:34.01,2     56.28,5  (2096)  M110     206.  24,085 ¦  1:15.48   56.¦ 2:27.37   55.¦ 2:51.07   58.¦   23.30   80.¦ 3:57.12   54.¦
   56. Gemignani Fabrizio   66 Lucca                SRM TEam                         4:34.13,5     56.40,8  (5169)  M110     207.  24,067 ¦  1:16.59   64.¦ 2:28.32   59.¦ 2:50.51   55.¦   22.19   40.¦ 3:56.36   52.¦
   57. Werth Christian      66 St.Michael Eppan     Bike Club Egna                   4:34.37,9     57.05,2  (1773)  M110     212.  24,032 ¦  1:12.28   40.¦ 2:26.54   51.¦ 2:50.22   52.¦   23.28   78.¦ 3:57.47   57.¦
   58. Schönfeld Romuald    64 A-Thalheim bei Wels  Bank Austria                     4:34.44,7     57.12,0  (8790)  M110     213.  24,022 ¦  1:24.12  163.¦ 2:36.54  106.¦ 3:00.16  103.¦   23.21   70.¦ 4:01.36   65.¦
   59. Muratori Giovanni    64 Forlì                AS Il  Bradipo                   4:35.00,8     57.28,1  (8226)  M110     217.  23,998 ¦  1:19.34   95.¦ 2:32.21   74.¦ 2:53.42   61.¦   21.21   26.¦ 4:00.40   61.¦
   60. Nani Norberto        63 Ortonovo             VF M. Pelliccia                  4:35.21,8     57.49,1  (1854)  M110     218.  23,968 ¦  1:26.16  201.¦ 2:34.38   92.¦ 2:56.25   79.¦   21.47   29.¦ 4:02.05   66.¦
   61. Di Vito Gianfranco   62 Palestrina           U. C. Palestrina                 4:36.04,7     58.32,0  (5237)  M110     225.  23,906 ¦  1:18.54   87.¦ 2:33.11   83.¦ 2:56.00   72.¦   22.48   56.¦ 3:59.59   60.¦
   62. Cilli Riccardo       66 Rondissone           G.S.Pedale Leynicese             4:36.16,3     58.43,6  (3943)  M110     228.  23,889 ¦  1:11.24   35.¦ 2:24.05   41.¦ 2:48.39   48.¦   24.33  119.¦ 3:57.49   58.¦
   63. Maierhofer Hubert    61 A-Stanz/Mürztal      RC Bruck/Mur                     4:36.16,7     58.44,0  (1163)  M110     229.  23,888 ¦  1:16.45   62.¦ 2:32.53   80.¦ 2:56.27   80.¦   23.34   87.¦ 4:03.43   71.¦
   64. Trevisan Maurizio    66 Marghera             G. Ciclistico Biesse             4:36.40,6     59.07,9  (2199)  M110     233.  23,854 ¦  1:16.48   63.¦ 2:32.18   72.¦ 2:55.42   68.¦   23.24   73.¦ 4:02.34   68.¦
   65. Dal Canto Alessandro 65 Casciana Terme       US Juventus Lari                 4:37.08,0     59.35,3  (4688)  M110     237.  23,815 ¦  1:14.57   52.¦ 2:26.04   49.¦ 2:48.38   47.¦   22.34   48.¦ 4:00.50   62.¦
   66. Tesching Andreas     66 D-Oberderdingen      RSC Bretten                      4:37.32,5     59.59,8  (5429)  M110     243.  23,780 ¦  1:17.48   71.¦ 2:28.06   56.¦ 2:50.50   54.¦   22.43   51.¦ 4:02.13   67.¦
   67. Vaccari Pierluigi    64 Ferrara                                               4:37.37,7   1:00.05,0  (3624)  M110     244.  23,772 ¦  1:19.16   92.¦ 2:35.55  100.¦ 2:59.43   99.¦   23.47   97.¦ 4:05.29   77.¦
   68. Girardi Angelo       63 Varese               Coppi Racing Team                4:37.40,1   1:00.07,4  (1258)  M110     245.  23,769 ¦  1:13.34   45.¦ 2:25.22   46.¦ 2:48.46   49.¦   23.24   72.¦ 4:00.58   63.¦
   69. Scheggi Sergio       63 Prato                King-Boss-Bike                   4:37.59,5   1:00.26,8  (8721)  M110     247.  23,741 ¦  1:20.23  110.¦ 2:34.17   88.¦ 2:57.09   85.¦   22.51   61.¦ 4:04.01   73.¦
   70. Porretta Aldo        66 Monsummano Terme     Pezzini Bike Official Team       4:39.05,1   1:01.32,4  (2972)  M110     254.  23,648 ¦  1:17.44   70.¦ 2:31.54   67.¦ 2:55.26   67.¦   23.32   85.¦ 4:03.24   70.¦
   71. Moschioni Giancarlo  65 Tavagnacco           C..s. Delle Case                 4:39.25,1   1:01.52,4  (4156)  M110     258.  23,620 ¦  1:14.29   48.¦ 2:24.54   44.¦ 2:47.28   43.¦   22.34   49.¦ 4:01.02   64.¦
   72. De Angelis Massimo   66 Monfalcone           DLF Isontina Monfalcone          4:39.51,3   1:02.18,6  (5229)  M110     262.  23,583 ¦  1:17.49   72.¦ 2:32.42   78.¦ 2:55.55   70.¦   23.13   67.¦ 4:03.55   72.¦
   73. Gainotti Nerio       66 Pavarolo             DGM1RACINGTEAM                   4:40.08,9   1:02.36,2  (3647)  M110     266.  23,558 ¦  1:17.08   67.¦ 2:33.33   85.¦ 2:56.24   78.¦   22.50   60.¦ 4:04.35   75.¦
   74. Romiti Andrea        64 Casciana Terme       US Juventus Lari                 4:40.23,4   1:02.50,7  (4685)  M110     270.  23,538 ¦  1:18.36   80.¦ 2:31.59   71.¦ 2:56.22   77.¦   24.22  114.¦ 4:04.19   74.¦
   75. Dal Forno Alberto    64 Verona               SPORT ALLIANCE-BUTTY             4:40.54,0   1:03.21,3  (2000)  M110     275.  23,495 ¦  1:18.22   76.¦ 2:32.20   73.¦ 2:56.14   74.¦   23.54   98.¦ 4:06.04   79.¦
   76. Papini Giovanni      66 Bibbiena Stazione    King bike                        4:40.59,5   1:03.26,8  (3328)  M110     277.  23,488 ¦  1:17.01   65.¦ 2:33.45   86.¦ 2:56.36   81.¦   22.50   59.¦ 4:04.43   76.¦
   77. Araldi Giuseppe      64 Cozzano              GS Pedale Valparma               4:41.15,9   1:03.43,2  (3013)  M110     279.  23,465 ¦  1:18.59   88.¦ 2:35.16   96.¦ 2:58.39   90.¦   23.23   71.¦ 4:06.39   81.¦
   78. Tronci Luca          65 Prato                Inwool Prato                     4:41.25,6   1:03.52,9  (9044)  M110     280.  23,451 ¦  1:17.43   69.¦ 2:32.36   76.¦ 2:56.08   73.¦   23.32   83.¦ 4:05.55   78.¦
   79. Lindner Peter        64 A-Schwaz             Raiffeisen RadteamTirol          4:41.31,5   1:03.58,8  (2079)  M110     281.  23,443 ¦  1:18.27   78.¦ 2:31.57   69.¦ 2:56.16   75.¦   24.19  109.¦ 4:06.45   82.¦
   80. Haidenek Peter       65 D-Aachen             EC Bayer Worringen               4:41.49,5   1:04.16,8  (4770)  M110     283.  23,418 ¦  1:24.01  160.¦ 2:39.25  119.¦ 3:00.33  105.¦   21.08   19.¦ 4:07.43   87.¦
   80. Salvestrini Mirco    61 Buggiano             Cicloamatori  Buggiano           4:41.49,5   1:04.16,8  (2782)  M110     283.  23,418 ¦     ----  ----¦ 2:28.52   60.¦ 2:53.22   60.¦   24.30  116.¦ 4:06.48   83.¦
   82. Pagliaroli Marco     65 Parma                Arci Filippelli Vecchia Parma    4:42.28,6   1:04.55,9  (8333)  M110     286.  23,364 ¦  1:16.12   58.¦ 2:31.57   68.¦ 2:56.51   84.¦   24.54  135.¦ 4:07.23   86.¦
   83. Matteini Giorgio     65 Lecco                Rampi club brianza               4:42.38,1   1:05.05,4  (1133)  M110     287.  23,351 ¦  1:10.00   29.¦ 2:21.56   34.¦ 2:44.22   35.¦   22.25   45.¦ 3:56.26   49.¦
   84. Paciscopi Rosa Marco 62 Prato                VC Bar Mannelli                  4:43.03,5   1:05.30,8  (6307)  M110     291.  23,316 ¦  1:20.14  103.¦ 2:37.14  107.¦ 3:00.15  102.¦   23.00   64.¦ 4:09.18   94.¦
   85. Benucci Andrea       64 Seano                VC Bar Mannelli                  4:43.04,3   1:05.31,6  (6284)  M110     292.  23,315 ¦  1:20.17  106.¦ 2:37.14  108.¦ 2:59.19   95.¦   22.05   32.¦ 4:09.15   93.¦
   86. Bianco Giovanni      65 Casier               Granfondo Pinarello              4:43.18,9   1:05.46,2  (4965)  M110     296.  23,295 ¦  1:19.04   89.¦ 2:33.03   81.¦ 2:56.39   83.¦   23.35   88.¦ 4:06.22   80.¦
   87. Urbano Franco        63 Bologna              Gianluca Faenza Team             4:43.37,6   1:06.04,9  (1110)  M110     301.  23,270 ¦  1:15.54   57.¦ 2:31.09   61.¦ 2:55.59   71.¦   24.50  133.¦ 4:07.59   89.¦
   88. Rosellini Roberto    64 Corciano PG          GS Castel Rigone Pedala          4:43.41,1   1:06.08,4  (1018)  M110     302.  23,265 ¦  1:20.35  113.¦ 2:34.29   90.¦ 2:58.49   92.¦   24.19  111.¦ 4:07.47   88.¦
   89. Vannelli Moreno      63 Lucca                GS Luigi Daccordi                4:43.47,3   1:06.14,6  (1217)  M110     304.  23,256 ¦  1:17.18   68.¦ 2:32.22   75.¦ 2:56.36   82.¦   24.14  108.¦ 4:08.23   91.¦
   90. Bitti Giuseppe       64 Pattada              S.C. Pattada                     4:44.14,8   1:06.42,1  (3761)  M110     308.  23,219 ¦  1:22.50  140.¦ 2:38.02  111.¦ 3:02.06  110.¦   24.04  102.¦ 4:09.40   95.¦
   91. Danner Konrad        66 D-Mindelheim         VC Mindelheim                    4:44.21,5   1:06.48,8  (2003)  M110     309.  23,210 ¦  1:17.06   66.¦ 2:31.42   66.¦ 2:55.46   69.¦   24.04  103.¦ 4:08.19   90.¦
   92. Fiorani Federico     61 Viareggio (LU)       Pezzini Bike Official Team       4:44.39,2   1:07.06,5  (7270)  M110     310.  23,186 ¦  1:20.53  117.¦ 2:35.14   95.¦ 2:58.40   91.¦   23.26   77.¦ 4:06.59   85.¦
   93. Borsarini Roberto    64 ASPARETTO DI CEREA   GS ASPARETTO                     4:44.47,1   1:07.14,4  (3293)  M110     312.  23,175 ¦  1:21.10  123.¦ 2:35.22   97.¦ 2:59.02   93.¦   23.39   91.¦ 4:10.16   98.¦
   94. Sensolini Attilio    65 sassofeltrio (PU)    Gruppo sportivo dogana - R.S.M   4:45.30,5   1:07.57,8  (4042)  M110     319.  23,116 ¦  1:18.53   86.¦ 2:35.49   99.¦ 2:59.22   96.¦   23.33   86.¦ 4:06.52   84.¦
   95. De Vettori Edmund    62 S. Cassiano (BZ)     S.C. Alta Badia-Raiffeisen       4:45.46,6   1:08.13,9  (2006)  M110     322.  23,094 ¦  1:19.49   98.¦ 2:34.16   87.¦ 2:57.57   88.¦   23.41   95.¦ 4:08.55   92.¦
   96. Landolfo Vincenzo    62 Tarquinia            Tarkna Bici Club                 4:47.14,4   1:09.41,7  (7877)  M110     333.  22,977 ¦  1:22.24  134.¦ 2:40.18  125.¦ 3:04.30  122.¦   24.12  107.¦ 4:10.43   99.¦
   97. Santoni Marco        63 San Martino al Cimin GC Cicli Montanini               4:47.15,2   1:09.42,5  (9337)  M110     334.  22,976 ¦  1:19.46   97.¦ 2:36.37  104.¦ 3:01.03  106.¦   24.26  115.¦ 4:10.49  100.¦
   98. Guidorossi Corrado   63 S.Ilario Baganza     Nuova Corti Team Scapin          4:47.22,6   1:09.49,9  (3133)  M110     336.  22,966 ¦  1:22.49  139.¦ 2:40.37  128.¦ 3:04.02  118.¦   23.24   75.¦ 4:09.52   96.¦
   99. Crespi Roberto       66 Sulbiate             Team Bellusco Cicloamatori       4:47.38,5   1:10.05,8  (5220)  M110     339.  22,945 ¦  1:21.35  126.¦ 2:36.49  105.¦ 3:01.27  108.¦   24.37  123.¦ 4:11.38  105.¦
  100. Maggi Luca           66 Camaiore LU          G.S. Speedy Bike Center          4:47.50,0   1:10.17,3  (1096)  M110     344.  22,929 ¦  1:18.36   81.¦ 2:34.24   89.¦ 2:59.39   98.¦   25.14  146.¦ 4:12.48  109.¦
  101. Dekker Pieter        63 NL-CV Delft          En Route                         4:48.00,0   1:10.27,3  (1725)  M110     345.  22,916 ¦  1:18.26   77.¦ 2:34.49   93.¦ 2:59.30   97.¦   24.41  128.¦ 4:11.36  104.¦
  102. Armaroli Massimo     65 Casalecchio di Reno  S.C AZZURRA                      4:48.39,0   1:11.06,3  (3354)  M110     347.  22,865 ¦  1:19.30   94.¦ 2:34.52   94.¦ 3:00.22  104.¦   25.30  163.¦ 4:12.03  106.¦
  103. Caselli Max          65 USA                  www.bikecamp.com                 4:49.01,6   1:11.28,9  (2353)  M110     349.  22,835 ¦  1:14.00   47.¦ 2:25.37   48.¦ 2:50.10   51.¦   24.32  117.¦ 4:10.51  101.¦
  104. Rovetta Renato       62 Mornico al Serio     Mtb Road Mornico                 4:49.02,6   1:11.29,9  (8631)  M110     351.  22,833 ¦  1:29.56  263.¦ 2:45.17  166.¦ 3:08.49  147.¦   23.31   82.¦ 4:13.11  110.¦
  105. Rainer Franz         64 A-Heinfels           Radclub Hochpustertal            4:49.47,3   1:12.14,6  (1868)  M110     358.  22,775 ¦  1:16.24   60.¦ 2:31.26   62.¦ 2:57.31   86.¦   26.04  189.¦ 4:12.16  107.¦
  106. Carioligi Massimilia 63 Lari                 US Juventus Lari                 4:50.37,1   1:13.04,4  (4686)  M110     363.  22,710 ¦  1:16.19   59.¦ 2:31.59   70.¦ 2:56.21   76.¦   24.22  113.¦ 4:10.00   97.¦
  107. Michettoni Luca      66 San Benedetto del Tr CLUB SBT 2000                    4:50.41,6   1:13.08,9  (8136)  M110     364.  22,704 ¦  1:19.25   93.¦ 2:37.32  109.¦ 3:02.47  112.¦   25.15  147.¦ 4:12.25  108.¦
  108. Nast Markus          66 D-Stockdorf          Lech Angels                      4:50.51,3   1:13.18,6  (1430)  M110     368.  22,691 ¦  1:10.14   30.¦ 2:21.13   31.¦ 2:44.24   36.¦   23.11   66.¦ 4:03.23   69.¦
  109. Tanghetti Marco      66 Trieste              S.c. gentlemen trieste           4:50.53,9   1:13.21,2  (2191)  M110     370.  22,688 ¦  1:18.39   83.¦ 2:36.08  101.¦ 2:59.54  100.¦   23.46   96.¦ 4:10.57  102.¦
  110. Windmüller Uwe       63 D-Gaildorf           Bike o'Maniax                    4:51.34,7   1:14.02,0  (9256)  M110     375.  22,635 ¦  1:25.52  191.¦ 2:44.11  154.¦ 3:07.36  138.¦   23.24   74.¦ 4:15.37  115.¦
  111. Ghilarducci Riccardo 62 Torre del Lago Pucci GS Bianchi Team Colnago          4:51.36,7   1:14.04,0  (7394)  M110     376.  22,632 ¦  1:18.07   74.¦ 2:33.30   84.¦ 2:57.37   87.¦   24.07  104.¦ 4:11.22  103.¦
  112. Benelli Sandro       64 Riccione             G.S.Bicifestival Riccione        4:52.07,2   1:14.34,5  (3026)  M110     381.  22,593 ¦  1:20.57  119.¦ 2:34.36   91.¦ 2:59.18   94.¦   24.42  130.¦ 4:13.43  111.¦
  113. Peron Adriano        65 Sacile               Amici del pedale                 4:52.38,6   1:15.05,9  (3607)  M110     384.  22,553 ¦  1:20.15  104.¦    ----  ----¦ 3:01.20  107.¦    ----  ----¦ 4:15.34  114.¦
  114. Kohlbauer Helmut     66 D-Wegscheid                                           4:53.02,5   1:15.29,8  (2070)  M110     391.  22,522 ¦  1:20.31  112.¦ 2:38.47  116.¦ 3:03.20  114.¦   24.32  118.¦ 4:15.10  113.¦
  115. Ferri Roberto        61 Via Val D'Enza       BIKEXTREME ALTA VAL D'ENZA       4:54.01,7   1:16.29,0  (7250)  M110     399.  22,446 ¦     ----  ----¦ 2:40.44  130.¦ 3:03.31  115.¦   22.46   54.¦ 4:16.23  116.¦
  116. Braga Ezio           66 Brescia              GS Carrera                       4:54.14,0   1:16.41,3  (5074)  M110     405.  22,431 ¦  1:25.11  182.¦ 2:43.09  146.¦ 3:08.04  143.¦   24.54  136.¦ 4:17.25  120.¦
  117. Guidi Gabriele       65 Cervarese Santa Croc GS Veloci Mestrino               4:54.15,8   1:16.43,1  (2719)  M110     406.  22,428 ¦  1:17.51   73.¦ 2:32.45   79.¦ 2:58.20   89.¦   25.34  168.¦ 4:14.44  112.¦
  118. Vergeiner Herbert    62 A-Thal-Assling       Radclub Hochpustertal            4:54.18,6   1:16.45,9  (1869)  M110     407.  22,425 ¦     ----  ----¦    ----  ----¦ 3:01.57  109.¦    ----  ----¦    ----  ----¦
  119. Biondi Massimo       63 Popiglio             Team Promo Sport                 4:54.53,7   1:17.21,0  (1149)  M110     415.  22,380 ¦  1:20.30  111.¦ 2:38.33  114.¦ 3:04.43  123.¦   26.10  194.¦ 4:18.07  124.¦
  120. Castelli Dario       64 BRUSAPORTO       BG  G.S. TESTA TIPOLITOGRAFIA        4:55.22,4   1:17.49,7  (1181)  M110     417.  22,344 ¦  1:19.15   91.¦ 2:39.28  120.¦ 3:04.43  123.¦   25.15  148.¦ 4:18.08  125.¦
  121. Mantegazza Davide    65 Lomazzo              GS Avis Lomazzo                  4:55.39,9   1:18.07,2   (282)  M110     422.  22,322 ¦  1:18.39   82.¦ 2:35.47   98.¦ 3:04.07  119.¦   28.20  306.¦ 4:16.57  118.¦
  122. Dähne Andreas        64 D-München                                             4:56.07,5   1:18.34,8  (7049)  M110     428.  22,287 ¦  1:26.04  197.¦ 2:44.45  159.¦ 3:08.17  144.¦   23.32   84.¦ 4:19.27  132.¦
  123. Assi Paolo           63 Zanica               Ciclistica Zanica                4:56.11,2   1:18.38,5  (1141)  M110     429.  22,283 ¦  1:20.58  121.¦ 2:41.35  134.¦ 3:05.06  126.¦   23.31   81.¦ 4:16.28  117.¦
  124. Dell'Arti Pierpaolo  65 Pradamano            Fun Bike                         4:56.11,8   1:18.39,1  (1315)  M110     430.  22,282 ¦  1:21.00  122.¦ 2:39.45  123.¦ 3:03.55  116.¦   24.09  106.¦ 4:19.02  130.¦
  125. Palagi Lauriano      61 Genova               Pezzini Bike Official Team       4:56.18,1   1:18.45,4  (2982)  M110     432.  22,274 ¦  1:26.43  207.¦ 2:43.30  150.¦ 3:07.34  137.¦   24.03  101.¦ 4:17.55  122.¦
  126. Scheidler Alfred     64 D-Tirschenreuth      RSC Tirschenreuth                4:56.44,1   1:19.11,4  (5401)  M110     438.  22,242 ¦  1:24.29  165.¦ 2:44.19  155.¦ 3:08.56  149.¦   24.37  122.¦ 4:18.53  127.¦
  127. Röder Thomas         64 D-München                                             4:56.53,9   1:19.21,2  (4556)  M110     439.  22,229 ¦  1:21.50  128.¦ 2:38.31  113.¦ 3:02.33  111.¦   24.01  100.¦ 4:17.04  119.¦
  128. Meloni Gianluigi     64 Lissone              Pavan free bike                  4:56.55,9   1:19.23,2  (3830)  M110     440.  22,227 ¦  1:20.16  105.¦ 2:38.06  112.¦ 3:03.19  113.¦   25.13  145.¦ 4:19.45  133.¦
  129. Nerucci Alessandro   63 Firenze              Cral Banca Toscana               4:57.14,2   1:19.41,5  (8254)  M110     443.  22,204 ¦     ----  ----¦ 2:50.09  207.¦    ----  ----¦    ----  ----¦ 4:20.47  138.¦
  130. Baroncelli Giacomo   61 Sesto F.no           Ciclistica il Regolo             4:57.16,3   1:19.43,6  (1327)  M110     444.  22,201 ¦  1:20.55  118.¦ 2:40.33  127.¦ 3:05.34  128.¦   25.00  141.¦ 4:19.26  131.¦
  131. Weber Marcel         66 CH-Gossau            Saufen und Fressen               4:57.48,4   1:20.15,7  (2216)  M110     454.  22,162 ¦  1:27.20  215.¦ 2:42.54  143.¦ 3:07.53  142.¦   24.59  140.¦ 4:22.10  145.¦
  132. Bresciani Francesco  64 Brescia              GS Carrera                       4:58.28,8   1:20.56,1  (5073)  M110     458.  22,112 ¦  1:25.05  180.¦ 2:44.23  157.¦ 3:07.43  140.¦   23.19   68.¦ 4:19.59  134.¦
  133. Novellino Alfonso    62 Gravellona Toce      Ver-Bike                         4:58.40,7   1:21.08,0  (3465)  M110     462.  22,097 ¦  1:29.12  254.¦ 2:49.57  205.¦    ----  ----¦    ----  ----¦ 4:20.54  139.¦
  134. Albertini Maurizio   66 Forlì                Team Sintesi-Italpaghe           4:58.49,3   1:21.16,6  (6421)  M110     463.  22,086 ¦  1:23.15  150.¦ 2:41.35  135.¦ 3:06.54  134.¦   25.19  152.¦ 4:18.01  123.¦
  135. Gazzarri Roberto     66 Carozzo La Spezia    Team Deba Bike                   4:58.50,7   1:21.18,0  (7363)  M110     465.  22,085 ¦  1:22.38  136.¦ 2:42.36  141.¦ 3:09.18  153.¦   26.41  227.¦ 4:20.18  135.¦
  136. Fossati Enrico       64 Firenze (FI)         Bicisporteam  Firenze            4:59.00,1   1:21.27,4  (1279)  M110     469.  22,073 ¦  1:23.11  149.¦ 2:43.49  153.¦ 3:09.30  154.¦   25.40  173.¦ 4:21.51  143.¦
  137. Follarini Luca       62 Arzago d'Adda        G. S. Cicli Baronchelli          4:59.01,8   1:21.29,1  (3568)  M110     471.  22,071 ¦  1:21.18  125.¦ 2:41.35  136.¦ 3:07.52  141.¦   26.16  199.¦ 4:18.53  128.¦
  138. Baiocchi Lorenzo     61 Bonorva              Santa Barbara                    4:59.02,9   1:21.30,2  (6560)  M110     472.  22,070 ¦  1:23.21  152.¦ 2:42.25  139.¦ 3:07.06  136.¦   24.41  127.¦ 4:22.24  147.¦
  139. Sartori Luca         62 Parma                G.S. Sport Bike Cicli            4:59.06,2   1:21.33,5  (5393)  M110     473.  22,065 ¦     ----  ----¦ 2:50.46  214.¦ 3:13.46  189.¦   22.59   62.¦ 4:22.40  149.¦
  140. Rossini Nicola       64 Vaglia               GS Vicchio Bike                  4:59.22,9   1:21.50,2  (8626)  M110     477.  22,045 ¦  1:23.47  157.¦ 2:45.05  161.¦ 3:10.44  165.¦   25.38  172.¦ 4:21.05  140.¦
  141. Giacomelli Rodolfo   65 Fucecchio            Bhoss King Bike                  4:59.35,4   1:22.02,7  (7400)  M110     480.  22,030 ¦     ----  ----¦ 2:43.36  151.¦ 3:08.57  150.¦   25.21  155.¦ 4:21.26  141.¦
  142. Pedonese Roberto     61 Lido di Camaiore     Pezzini Bike Official Team       4:59.40,7   1:22.08,0  (3192)  M110     482.  22,023 ¦  1:19.37   96.¦ 2:38.46  115.¦ 3:04.24  120.¦   25.37  169.¦ 4:20.26  136.¦
  143. Bacconi Alessandro   65 GREVE IN CHIANTI     Team le lame probike             4:59.43,3   1:22.10,6  (2913)  M110     485.  22,020 ¦  1:20.20  109.¦ 2:36.35  103.¦ 3:03.59  117.¦   27.24  263.¦ 4:18.58  129.¦
  144. Rigoni Fabio         63 Chiampo              Ciclismo Valchiampo              4:59.58,8   1:22.26,1  (6246)  M110     487.  22,001 ¦  1:25.54  194.¦ 2:53.39  236.¦ 3:17.58  223.¦   24.19  110.¦ 4:23.06  150.¦
  145. Nodari Giovanni      62 Caravaggio           GS Amatori Caravaggio            5:00.22,5   1:22.49,8  (8277)  M110     495.  21,972 ¦  1:25.02  178.¦ 2:41.19  132.¦ 3:04.45  125.¦   23.25   76.¦ 4:18.27  126.¦
  146. Ammendola Felice     64 Agliana              UC Pedale Sangiorgese            5:00.23,4   1:22.50,7  (4673)  M110     496.  21,971 ¦  1:20.06  102.¦ 2:37.47  110.¦    ----  ----¦    ----  ----¦ 4:20.41  137.¦
  147. Parisini Guido       61 Parma                AS Tecno Bici                    5:00.26,8   1:22.54,1  (6181)  M110     497.  21,967 ¦  1:25.38  187.¦ 2:45.11  164.¦ 3:10.27  162.¦   25.15  149.¦ 4:22.25  148.¦
  148. Pigna Corrado        61 Altipiani di Arcinaz GS CICLI PETTA                   5:00.27,8   1:22.55,1  (8425)  M110     498.  21,966 ¦  1:25.08  181.¦ 2:46.25  182.¦ 3:11.54  173.¦   25.29  162.¦ 4:24.48  159.¦
  149. Jähn Herbert         62 D-Raschau                                             5:01.03,6   1:23.30,9  (7701)  M110     506.  21,922 ¦  1:24.59  177.¦ 2:45.11  163.¦ 3:10.05  159.¦   24.53  134.¦ 4:24.33  158.¦
  150. Fornari Roberto      62 Mantova (MN)         SC Learco Guerra                 5:01.08,2   1:23.35,5  (1872)  M110     507.  21,916 ¦  1:23.29  153.¦ 2:43.15  149.¦ 3:09.10  151.¦   25.54  180.¦ 4:23.18  151.¦
  151. Paltrinieri Daniele  63 Sassuolo             Scavezzon Squadra Corse          5:01.18,2   1:23.45,5  (3327)  M110     508.  21,904 ¦  1:24.28  164.¦ 2:45.09  162.¦ 3:09.30  154.¦   24.20  112.¦ 4:21.40  142.¦
  152. Chemeri Maurizio     61 San Piero a Sieve FI Ciclistica Il Regolo             5:01.24,4   1:23.51,7  (4778)  M110     510.  21,897 ¦  1:23.00  143.¦ 2:42.58  145.¦ 3:08.26  145.¦   25.28  158.¦ 4:23.59  154.¦
  153. Agazzi Costantino    61 Trescore Balneario   GS Nevi                          5:02.52,8   1:25.20,1  (6310)  M110     521.  21,790 ¦  1:28.17  237.¦ 2:51.48  224.¦ 3:15.28  203.¦   23.39   92.¦ 4:25.09  160.¦
  154. Snella Thomas        65 D-Rietberg           RSC Rietberg                     5:02.57,6   1:25.24,9  (3247)  M110     522.  21,785 ¦  1:28.40  244.¦ 2:52.26  229.¦ 3:17.22  217.¦   24.56  137.¦ 4:26.23  168.¦
  155. Camarin Giorgio      62 Casier               Granfondo Pinarello              5:03.03,0   1:25.30,3  (4957)  M110     524.  21,778 ¦  1:19.05   90.¦ 2:40.44  129.¦ 3:06.48  132.¦   26.04  188.¦ 4:22.04  144.¦
  156. Pieragnoli Gianluca  62 Prato                UC Pedale Sangiorgese            5:03.04,4   1:25.31,7  (4683)  M110     526.  21,776 ¦  1:27.28  218.¦ 2:49.25  199.¦ 3:14.01  190.¦   24.36  121.¦ 4:27.25  173.¦
  157. Bartoloni Luca       62 Radda in Chianti     G.s. punto PACEMA                5:03.04,6   1:25.31,9  (3755)  M110     527.  21,776 ¦  1:23.34  155.¦ 2:41.39  137.¦ 3:06.56  135.¦   25.16  151.¦ 4:22.15  146.¦
  158. Tank Jürgen          64 D-Ronsberg           SC Ronsberg                      5:03.30,4   1:25.57,7  (8952)  M110     532.  21,745 ¦  1:26.07  198.¦ 2:47.01  186.¦ 3:12.00  174.¦   24.59  139.¦ 4:23.57  153.¦
  159. Dalle Carbonare Paol 63 Treviso              Granfondo Pinarello              5:03.31,2   1:25.58,5  (4931)  M110     534.  21,744 ¦  1:20.44  114.¦ 2:40.18  125.¦ 3:06.49  133.¦   26.31  221.¦ 4:25.30  162.¦
  160. Fregolent Maurizio   64 Sernaglia D. Battagl Granfondo Pinarello              5:03.40,8   1:26.08,1  (1381)  M110     535.  21,733 ¦  1:20.45  115.¦ 2:39.35  121.¦ 3:05.49  129.¦   26.14  198.¦ 4:23.50  152.¦
  161. Pucciarelli Alfredo  63 Carrara              VF M. Pelliccia                  5:04.03,9   1:26.31,2  (8499)  M110     540.  21,705 ¦  1:27.48  222.¦ 2:48.15  191.¦ 3:14.13  191.¦   25.58  182.¦ 4:27.45  177.¦
  162. Auinger Michael      65 A-Wels                                                5:04.08,0   1:26.35,3  (6540)  M110     542.  21,701 ¦  1:29.48  261.¦    ----  ----¦ 3:14.42  193.¦    ----  ----¦ 4:26.59  170.¦
  163. Franchi Hiroshi      66 Gorlago              Mtb Road Mornico                 5:04.11,7   1:26.39,0  (7301)  M110     544.  21,696 ¦  1:27.19  214.¦ 2:46.40  185.¦ 3:12.45  181.¦   26.04  190.¦ 4:26.53  169.¦
  164. Hartl Helmut         65 A-St. Peter am Wimbe Bank Austria                     5:04.18,2   1:26.45,5  (7569)  M110     545.  21,688 ¦     ----  ----¦ 2:42.55  144.¦ 3:07.37  139.¦   24.41  129.¦ 4:17.31  121.¦
  165. Accornero Davide     64 Torino               Petit Veló                       5:04.19,9   1:26.47,2   (122)  M110     546.  21,686 ¦  1:24.35  167.¦ 2:48.14  190.¦ 3:13.45  188.¦   25.30  164.¦ 4:28.05  181.¦
  166. Cossu Marco          63 Forlì                SC Vecchiazzano                  5:04.33,7   1:27.01,0  (7020)  M110     549.  21,670 ¦  1:28.04  231.¦ 2:48.03  189.¦ 3:13.19  186.¦   25.16  150.¦ 4:27.06  171.¦
  167. Giustina Arturo      61 Staranzano           Team Sclauzero-Starbene          5:04.49,4   1:27.16,7  (1035)  M110     551.  21,651 ¦  1:24.59  175.¦ 2:46.26  183.¦ 3:12.29  178.¦   26.02  187.¦ 4:27.51  180.¦
  168. Metzner Dieter       62 D-Eichenau           SC Gröbenzell                    5:05.05,5   1:27.32,8  (8125)  M110     553.  21,632 ¦  1:21.38  127.¦ 2:43.12  147.¦ 3:08.32  146.¦   25.19  153.¦ 4:24.22  156.¦
  169. Ferretti Roberto     66 Follonica            G.S. Ciclistica Senese           5:05.32,0   1:27.59,3  (5255)  M110     558.  21,601 ¦  1:23.21  151.¦ 2:45.19  168.¦ 3:10.41  164.¦   25.21  156.¦ 4:25.55  165.¦
  170. Falchi Romano        61 Scarperia            Atletica Marciatori Mugello      5:05.59,5   1:28.26,8  (7212)  M110     566.  21,569 ¦  1:25.15  184.¦ 2:47.10  187.¦ 3:13.17  184.¦   26.07  192.¦ 4:27.50  179.¦
  171. Leoni Claudio        62 Cigognola            Sc Pedale Bronese                5:05.59,6   1:28.26,9  (7919)  M110     567.  21,569 ¦  1:22.43  138.¦ 2:45.29  171.¦ 3:11.47  171.¦   26.17  201.¦ 4:26.21  167.¦
  172. Villantieri Mauro    64 Vigolzone (PC)       Pedale Pontolliese               5:06.17,9   1:28.45,2  (1218)  M110     570.  21,547 ¦  1:20.46  116.¦ 2:43.14  148.¦ 3:10.18  161.¦   27.04  245.¦ 4:27.30  175.¦
  173. Antimi Antonio       63 Forlimpopoli         Team Sintesi-Italpaghe           5:06.19,5   1:28.46,8  (5055)  M110     571.  21,545 ¦  1:25.54  193.¦ 2:44.19  156.¦ 3:10.10  160.¦   25.50  178.¦ 4:25.41  163.¦
  174. Taric Dusan          61 SLO-Domzale          Novice Extreme                   5:06.23,8   1:28.51,1  (4255)  M110     572.  21,540 ¦  1:23.01  144.¦ 2:42.30  140.¦ 3:09.18  152.¦   26.48  232.¦ 4:25.24  161.¦
  175. Conti Giovanni       65 Bagno a Ripoli - Fir GS Ciclisti Grassina             5:06.36,4   1:29.03,7  (3075)  M110     576.  21,525 ¦  1:22.58  141.¦ 2:41.54  138.¦ 3:06.39  131.¦   24.45  131.¦ 4:24.18  155.¦
  176. Levrini Bruno        62 Castelnovo nè Monti  Università del Pedale            5:06.45,3   1:29.12,6  (5036)  M110     578.  21,515 ¦  1:30.21  280.¦ 2:51.08  216.¦ 3:15.46  207.¦   24.37  124.¦ 4:27.45  178.¦
  177. De Leo Luca          63 Ponzano Veneto       Granfondo Pinarello              5:06.53,8   1:29.21,1  (4969)  M110     579.  21,505 ¦  1:25.05  179.¦ 2:45.59  178.¦ 3:11.48  172.¦   25.48  175.¦ 4:28.53  184.¦
  178. Lazzarini Mauro      61 Arenzano (Ge)        GS Terralba                      5:07.09,0   1:29.36,3  (6062)  M110     583.  21,487 ¦  1:26.02  195.¦ 2:52.54  231.¦ 3:17.32  218.¦   24.38  125.¦ 4:30.27  191.¦
  179. Tosini Enrico        63 Sarzana              Gs Bici Center                   5:07.13,9   1:29.41,2  (5130)  M110     584.  21,482 ¦  1:23.51  159.¦ 2:43.37  152.¦ 3:10.27  163.¦   26.50  234.¦ 4:28.24  182.¦
  180. Breitmaier Reiner    65 D-Ulm                                                 5:07.24,5   1:29.51,8  (3823)  M110     585.  21,469 ¦  1:25.26  186.¦ 2:49.17  198.¦ 3:14.50  195.¦   25.33  166.¦ 4:30.54  194.¦
  181. Grassi Alessandro    65 Casciana Terme       Parkpre-Guru-Inkospor            5:07.43,7   1:30.11,0   (166)  M110     591.  21,447 ¦  1:20.19  108.¦ 2:39.50  124.¦ 3:05.52  130.¦   26.02  185.¦ 4:24.30  157.¦
  182. Poggi Stefano        61 Sieci                Polisportiva Sieci               5:07.46,5   1:30.13,8  (8456)  M110     592.  21,444 ¦  1:24.12  161.¦ 2:45.27  170.¦ 3:11.46  170.¦   26.18  203.¦ 4:26.20  166.¦
  183. Riccardi Giancarlo   62 Viterbo              GC Viterbese                     5:08.06,9   1:30.34,2  (4516)  M110     595.  21,420 ¦  1:22.11  133.¦ 2:41.17  131.¦ 3:09.42  156.¦   28.25  313.¦ 4:27.22  172.¦
  184. Brizziobello Pierlui 63 Montalto di Castro   Polisportiva Montalto            5:08.23,2   1:30.50,5  (4321)  M110     600.  21,401 ¦  1:26.14  200.¦ 2:45.50  177.¦ 3:10.54  169.¦   25.03  142.¦ 4:25.42  164.¦
  185. Ahner Bernd          63 D-Holzkirchen        Lech Angels                      5:08.23,3   1:30.50,6  (1455)  M110     601.  21,401 ¦  1:22.39  137.¦ 2:45.46  176.¦ 3:09.56  157.¦   24.09  105.¦ 4:28.37  183.¦
  186. Capra Danilo         64 SAN MAURIZIO CANAVES PEDALE TRINESE                   5:08.26,5   1:30.53,8  (3549)  M110     603.  21,397 ¦  1:30.20  277.¦ 2:52.38  230.¦ 3:16.37  210.¦   23.59   99.¦ 4:29.03  186.¦
  187. Fracasso Giuseppe    63 Treviso              Granfondo Pinarello              5:08.54,5   1:31.21,8  (4947)  M110     606.  21,365 ¦  1:21.59  130.¦ 2:45.42  175.¦ 3:12.11  176.¦   26.29  216.¦ 4:30.53  193.¦
  188. Daniotti Enrico      62 Treviso              Granfondo Pinarello              5:08.55,7   1:31.23,0  (4939)  M110     607.  21,364 ¦  1:21.58  129.¦ 2:45.41  174.¦ 3:12.14  177.¦   26.33  224.¦ 4:30.56  195.¦
  189. Bernini Claudio      64 Tarquinia            V.B.M. Monte Fogliano Cura       5:09.06,5   1:31.33,8  (3536)  M110     608.  21,351 ¦  1:24.59  176.¦ 2:45.38  172.¦ 3:12.34  179.¦   26.56  239.¦ 4:29.46  189.¦
  190. Pfannhauser Roman    64 A-St. Martin bei Lof Werks Teom ST. Martin            5:09.13,3   1:31.40,6  (5364)  M110     611.  21,343 ¦  1:26.17  202.¦ 2:44.49  160.¦ 3:10.49  168.¦   26.00  183.¦ 4:27.28  174.¦
  191. Febo Aurelio         63 S.Giorgio di Livenza GS La Salute - S Giorgio         5:09.37,2   1:32.04,5  (2603)  M110     616.  21,316 ¦  1:26.17  203.¦ 2:45.39  173.¦ 3:12.01  175.¦   26.22  210.¦ 4:28.57  185.¦
  192. Carta Mirco          63 Arcugnano            G.S. San Pio X Vicenza           5:09.54,0   1:32.21,3  (3060)  M110     624.  21,297 ¦  1:26.03  196.¦ 2:48.16  192.¦ 3:14.57  196.¦   26.40  226.¦ 4:30.47  192.¦
  193. Speranza Gianfranco  62 Pettino              Team Pianeta Ciclo               5:10.25,2   1:32.52,5  (5420)  M110     632.  21,261 ¦  1:28.44  246.¦ 2:51.09  217.¦ 3:17.34  219.¦   26.24  214.¦ 4:33.29  206.¦
  194. Rampone Cesare       66 Pozzuolo Martesana   G.S. PEDALE POZZUOLESE           5:10.27,0   1:32.54,3  (4038)  M110     633.  21,259 ¦  1:25.24  185.¦ 2:53.46  238.¦ 3:20.03  229.¦   26.17  200.¦ 4:29.04  187.¦
  195. Penazzi Roberto      66 Imola                Polisportiva Routier             5:10.38,3   1:33.05,6  (8387)  M110     634.  21,246 ¦  1:28.16  236.¦ 2:50.17  209.¦ 3:16.46  212.¦   26.29  220.¦ 4:33.32  208.¦
  196. Tempestini Rinaldo   61 Prato                Team Campaioli Cipriani & Gest   5:10.43,9   1:33.11,2  (8972)  M110     635.  21,240 ¦  1:28.27  241.¦ 2:55.11  246.¦ 3:20.49  234.¦   25.38  170.¦ 4:33.30  207.¦
  197. Manca Stefano        63 Alghero              SC Santa Barbara                 5:10.58,9   1:33.26,2  (3155)  M110     639.  21,223 ¦  1:28.23  240.¦ 2:50.23  212.¦ 3:15.02  197.¦   24.39  126.¦ 4:33.35  209.¦
  198. Gulli Mauro          64 Trieste              GS Danieli                       5:11.17,4   1:33.44,7  (2778)  M110     645.  21,202 ¦  1:26.09  199.¦ 2:50.00  206.¦ 3:16.19  209.¦   26.19  204.¦ 4:29.42  188.¦
  199. Bortolot Roberto     64 TRIESTE (TS)         CGKK ADRIA                       5:11.20,2   1:33.47,5  (3544)  M110     646.  21,198 ¦  1:27.57  227.¦ 2:52.07  225.¦ 3:18.39  225.¦   26.31  222.¦ 4:34.20  212.¦
  200. Zambon Marco         66 Milano               Ciclistica Bruzzano              5:11.27,4   1:33.54,7   (190)  M110     647.  21,190 ¦  1:23.10  148.¦ 2:46.11  180.¦ 3:13.13  183.¦   27.01  244.¦ 4:32.17  199.¦
  201. Klinger Harald       62 D-Riesa              SC Riesa e.V.                    5:11.28,3   1:33.55,6  (7789)  M110     648.  21,189 ¦  1:22.06  131.¦ 2:44.28  158.¦ 3:10.47  167.¦   26.18  202.¦ 4:30.12  190.¦
  202. Lauceri Enore        62 Poggio Berni         GS Olimpia Nuova                 5:11.36,3   1:34.03,6  (7889)  M110     649.  21,180 ¦  1:26.50  209.¦ 2:54.07  239.¦ 3:19.37  227.¦   25.29  161.¦ 4:33.05  204.¦
  203. Webhofer Hanspeter   66 A-Strassen           Radclub Hochpustertal            5:12.05,2   1:34.32,5  (5134)  M110     656.  21,147 ¦  1:26.51  210.¦ 2:48.52  194.¦ 3:15.14  201.¦   26.22  211.¦ 4:32.05  198.¦
  204. Bernardi Guido       63 Solighetto (TV)      SC Solighetto 1919               5:12.35,0   1:35.02,3  (1077)  M110     662.  21,114 ¦  1:18.51   85.¦ 2:39.05  117.¦ 3:05.28  127.¦   26.22  212.¦ 4:27.34  176.¦
  205. Mauthe Gerd          61 D-Rottenburg         Lech Angels                      5:12.35,5   1:35.02,8  (1424)  M110     663.  21,113 ¦  1:22.29  135.¦ 2:41.33  133.¦ 3:08.56  148.¦   27.22  262.¦ 4:31.57  197.¦
  206. Vacchini Roberto     66 Verona               GS Gialloblu                     5:12.54,1   1:35.21,4   (150)  M110     664.  21,092 ¦  1:25.51  190.¦ 2:47.19  188.¦ 3:14.48  194.¦   27.29  269.¦ 4:32.49  202.¦
  207. Cobbe Stefano        62 Chiampo              Ciclismo Valchiampo              5:12.55,3   1:35.22,6  (6248)  M110     665.  21,091 ¦  1:30.47  291.¦ 2:57.48  265.¦ 3:23.09  249.¦   25.20  154.¦ 4:37.52  225.¦
  208. Bonazzi Davide       63 Parma                Arci Filippelli Vecchia Parma    5:12.55,9   1:35.23,2  (6755)  M110     667.  21,090 ¦  1:29.50  262.¦ 2:48.43  193.¦ 3:14.37  192.¦   25.54  180.¦ 4:34.03  211.¦
  209. Bulgarelli Stefano   64 Bologna              Granfondo Pinarello              5:13.05,8   1:35.33,1  (4967)  M110     669.  21,079 ¦  1:22.10  132.¦ 2:46.07  179.¦ 3:13.17  184.¦   27.10  251.¦ 4:32.27  200.¦
  210. Anghileri Giovanni   66 Calolziocorte        GS Perego                        5:13.17,0   1:35.44,3  (4631)  M110     672.  21,067 ¦  1:24.56  173.¦ 2:51.35  221.¦ 3:17.13  216.¦   25.38  170.¦ 4:32.32  201.¦
  211. Novak Tomaz          64 SLO-Lesce            Novice Extreme                   5:13.28,2   1:35.55,5  (4244)  M110     677.  21,054 ¦  1:23.00  142.¦ 2:39.16  118.¦ 3:04.26  121.¦   25.10  144.¦ 4:31.15  196.¦
  212. Olivari Emanuele     65 Volta Mantovana      Ciclo Club Volta MN              5:14.14,0   1:36.41,3  (2685)  M110     680.  21,003 ¦  1:24.51  171.¦ 2:49.09  197.¦ 3:15.39  204.¦   26.29  219.¦ 4:36.10  217.¦
  213. Ciabattini Luciano   63 Radda                GS Punto Pacema Arredamenti      5:14.16,9   1:36.44,2  (2876)  M110     681.  21,000 ¦  1:27.52  224.¦ 2:48.58  195.¦ 3:15.03  199.¦   26.05  191.¦ 4:33.28  205.¦
  214. Fonti Roberto        66 Quarrata             GS U. Signori                    5:14.31,7   1:36.59,0  (7293)  M110     685.  20,983 ¦  1:27.05  212.¦ 2:56.45  256.¦ 3:23.30  251.¦   26.44  230.¦ 4:36.24  219.¦
  215. Paladini Alessandro  62 Borgo a Mozzano      S.C. Borgo Mozzano               5:14.42,7   1:37.10,0  (4610)  M110     688.  20,971 ¦  1:31.40  312.¦ 2:51.36  223.¦ 3:17.57  222.¦   26.21  207.¦ 4:36.43  221.¦
  216. Milanesi Stefano     61 Prato                Windest                          5:14.47,2   1:37.14,5  (8141)  M110     690.  20,966 ¦  1:27.07  213.¦ 2:51.26  218.¦ 3:18.55  226.¦   27.28  268.¦ 4:33.41  210.¦
  217. Corti Gianpaolo      61 Inverigo             Carreri                          5:15.32,3   1:37.59,6  (5219)  M110     694.  20,916 ¦  1:27.29  219.¦ 2:49.54  204.¦ 3:16.46  211.¦   26.51  235.¦ 4:34.20  213.¦
  218. Veronese Stefano     64 Padova               G.S Ospedalieri Padova           5:15.48,5   1:38.15,8  (3731)  M110     697.  20,898 ¦  1:30.37  288.¦ 2:58.49  272.¦ 3:25.00  261.¦   26.10  195.¦ 4:38.02  226.¦
  219. Meinlschmidt Robert  65 D-Gaildorf           Bike o`Maniax                    5:15.51,7   1:38.19,0  (4189)  M110     700.  20,895 ¦  1:26.29  206.¦ 2:46.29  184.¦ 3:13.13  182.¦   26.43  228.¦ 4:35.21  215.¦
  220. Archetti Emanuele    62 Capriolo (BS)        MTB Credaro                      5:15.52,7   1:38.20,0  (2580)  M110     701.  20,894 ¦  1:23.48  158.¦ 2:52.26  228.¦ 3:20.03  230.¦   27.37  280.¦ 4:37.15  224.¦
  221. Bellezza Quater Marc 64 Ciriè (TO)           GS Redil Matergia Cirié          5:16.11,6   1:38.38,9  (2815)  M110     705.  20,873 ¦  1:30.01  265.¦ 2:55.03  245.¦ 3:20.52  236.¦   25.48  176.¦ 4:37.08  222.¦
  222. Amati Walter         64 Garlate              GS Perego                        5:16.19,6   1:38.46,9  (4632)  M110     710.  20,864 ¦  1:26.24  205.¦ 2:51.35  222.¦ 3:17.38  221.¦   26.02  186.¦ 4:35.03  214.¦
  223. Brunori Fabrizio     64 Foligno              G.S. PGS Casa del Pedale         5:16.42,8   1:39.10,1  (3047)  M110     714.  20,839 ¦  1:29.03  252.¦ 2:49.54  203.¦ 3:16.18  208.¦   26.24  213.¦ 4:38.26  228.¦
  224. Zanuttini Marco      64 Pagnacco             A.C.S. BUJE CICLI TANDEM         5:16.58,3   1:39.25,6  (5453)  M110     716.  20,822 ¦  1:25.46  189.¦ 2:55.42  249.¦ 3:21.52  240.¦   26.10  196.¦ 4:38.08  227.¦
  225. Cassani Pietro       62 Genova               VELO CLUB GENOVESE               5:17.10,2   1:39.37,5  (6923)  M110     717.  20,809 ¦  1:27.48  222.¦ 2:51.27  219.¦    ----  ----¦    ----  ----¦ 4:36.22  218.¦
  226. Casonato Dino        66 Monfumo              GS CIANO NORTHWAVE               5:17.41,0   1:40.08,3  (6920)  M110     727.  20,775 ¦  1:31.52  317.¦ 2:59.45  280.¦ 3:25.34  269.¦   25.49  177.¦ 4:42.26  246.¦
  227. Baumann Armin        63 D-Sonnenbühl         TSV Undingen                     5:17.59,7   1:40.27,0  (1949)  M110     730.  20,755 ¦  1:23.04  146.¦ 2:45.25  169.¦ 3:13.44  187.¦   28.18  301.¦ 4:36.27  220.¦
  228. Lo Scalzo Giuseppe   64 Pino Torinese        Antares team                     5:18.23,3   1:40.50,6  (6063)  M110     738.  20,729 ¦  1:27.52  225.¦ 2:57.07  259.¦ 3:24.26  255.¦   27.19  259.¦ 4:43.13  251.¦
  229. Municchi Francesco   62 Camucia              GGMP Testi Cicli                 5:19.29,8   1:41.57,1  (6325)  M110     750.  20,657 ¦  1:30.02  266.¦ 2:53.17  234.¦ 3:20.18  231.¦   27.01  243.¦ 4:39.32  230.¦
  230. Jacob Armin          65 D-Freiburg                                            5:19.48,3   1:42.15,6  (7698)  M110     753.  20,637 ¦  1:30.17  274.¦ 2:58.18  267.¦ 3:23.52  252.¦   25.33  167.¦ 4:41.59  241.¦
  231. Generali Alessandro  64 Modena               Biker team mo-est                5:19.53,1   1:42.20,4  (5268)  M110     755.  20,632 ¦  1:33.08  345.¦ 3:03.23  307.¦ 3:29.25  288.¦   26.01  184.¦ 4:43.30  253.¦
  232. Reiss Stephan        61 D-München                                             5:20.01,0   1:42.28,3  (4515)  M110     757.  20,623 ¦  1:23.35  156.¦ 3:04.13  312.¦ 3:29.22  287.¦   25.09  143.¦ 4:40.35  234.¦
  233. Cerbai Luciano       65 Scarperia (FI)       Ferri Taglienti Scarperia        5:20.07,7   1:42.35,0  (6087)  M110     758.  20,616 ¦  1:30.48  292.¦ 2:58.54  273.¦ 3:25.53  271.¦   26.59  241.¦ 4:42.40  248.¦
  234. Gaia Claudio         63 CH-Bellinzona                                         5:20.15,6   1:42.42,9  (3116)  M110     761.  20,608 ¦  1:24.41  168.¦ 2:50.13  208.¦ 3:15.45  206.¦   25.32  165.¦ 4:35.22  216.¦
  235. Fochesato Luca       65 Vicenza              G.S. Nicoli Infissi              5:20.19,0   1:42.46,3  (7288)  M110     762.  20,604 ¦  1:33.31  353.¦ 3:07.14  328.¦ 3:31.49  300.¦   24.34  120.¦ 4:41.54  240.¦
  236. Scharf Klaus         61 D-Wiesloch           TV St.Ilgen                      5:20.29,2   1:42.56,5  (5399)  M110     764.  20,593 ¦  1:34.30  368.¦ 3:03.01  304.¦ 3:31.32  298.¦   28.31  321.¦ 4:44.11  256.¦
  237. Ulivieri Riccardo    66 Borgo San Lorenzo    Circolo Elen Club 99             5:20.31,3   1:42.58,6  (9002)  M110     765.  20,591 ¦  1:29.20  256.¦ 2:59.11  276.¦ 3:25.33  268.¦   26.21  209.¦ 4:39.47  231.¦
  238. Tosoni Romano        62 CH-Gudo (Ticino)                                      5:21.26,2   1:43.53,5  (3793)  M110     771.  20,532 ¦  1:24.42  169.¦ 2:50.17  210.¦ 3:15.44  205.¦   25.27  157.¦ 4:37.12  223.¦
  239. Pastorelli Luca      63 Modena               Papillon Team Biker              5:21.38,0   1:44.05,3  (4115)  M110     774.  20,520 ¦  1:31.11  301.¦ 2:54.39  243.¦ 3:22.22  245.¦   27.43  284.¦ 4:40.15  232.¦
  240. Biselli Luciano      61 Carrara              VF M. Pelliccia                  5:21.42,7   1:44.10,0  (6721)  M110     776.  20,515 ¦  1:28.11  233.¦ 3:05.41  321.¦ 3:31.10  296.¦   25.28  160.¦ 4:45.01  259.¦
  241. D'Alessio Fabrizio   65 Roma                 G.C. Pagnotta Cicli Topi         5:22.16,9   1:44.44,2  (7038)  M110     779.  20,478 ¦  1:30.14  271.¦    ----  ----¦ 3:22.01  242.¦    ----  ----¦ 4:42.00  242.¦
  242. Bachmann Reiner      61 D-München            Lech Angels                      5:22.35,8   1:45.03,1  (1540)  M110     786.  20,458 ¦  1:23.30  154.¦ 2:45.18  167.¦ 3:12.35  180.¦   27.17  257.¦ 4:33.02  203.¦
  243. Weitlaner Willi      62 A-Sillian            Radclub Hochpustertal            5:22.37,5   1:45.04,8  (1870)  M110     788.  20,457 ¦  1:28.40  243.¦ 2:54.15  240.¦ 3:21.05  238.¦   26.50  233.¦ 4:43.27  252.¦
  244. Bertoni Andrea       63 S. Maria Colle       Kulmine Wac                      5:22.39,4   1:45.06,7  (6685)  M110     791.  20,455 ¦  1:28.48  247.¦ 2:56.22  253.¦ 3:22.51  248.¦   26.29  216.¦ 4:41.39  238.¦
  245. Aardema Joop         65 NL-SL Assen          En Route                         5:22.49,9   1:45.17,2  (1612)  M110     793.  20,444 ¦  1:28.53  249.¦ 2:55.22  247.¦ 3:22.06  243.¦   26.44  229.¦ 4:42.39  247.¦
  246. Germani Giuliano     63 Sant'Elpidio a Mare  GC Lucio Catalini                5:23.35,7   1:46.03,0  (6265)  M110     800.  20,395 ¦  1:32.18  326.¦ 2:56.53  257.¦ 3:24.29  256.¦   27.36  278.¦ 4:46.45  269.¦
  247. Pappagallo Donato    61 Padova               Hard Service                     5:23.37,1   1:46.04,4  (3187)  M110     801.  20,394 ¦  1:33.07  344.¦ 3:01.00  290.¦ 3:27.34  275.¦   26.33  225.¦ 4:45.16  263.¦
  248. Holzenthaler Eugen   63 D-Ummendorf          RC Landshut                      5:23.50,8   1:46.18,1  (7660)  M110     805.  20,380 ¦  1:33.52  359.¦ 3:07.51  339.¦ 3:34.05  317.¦   26.13  197.¦ 4:45.35  265.¦
  249. Mora Claudio         61 Parma                GS Massaflex Bedogni             5:23.52,7   1:46.20,0  (3169)  M110     806.  20,378 ¦  1:29.36  260.¦ 3:00.11  282.¦ 3:27.44  276.¦   27.33  276.¦ 4:44.06  255.¦
  250. Surian Nicola        66 Padova               SC Colli Euganei                 5:24.14,4   1:46.41,7  (3934)  M110     812.  20,355 ¦  1:30.32  287.¦ 2:59.36  278.¦    ----  ----¦    ----  ----¦ 4:43.04  250.¦
  251. Toncelli Walfrido    62 Gambassi Terme       TEAM ROI BIKE CERTALDO           5:24.22,4   1:46.49,7  (6337)  M110     816.  20,346 ¦  1:29.33  259.¦ 2:56.15  252.¦ 3:24.56  260.¦   28.40  334.¦ 4:46.34  267.¦
  252. Mildner Klaus        61 D-Haldenwang         SRI-Durach                       5:24.35,0   1:47.02,3  (8143)  M110     819.  20,333 ¦  1:28.30  242.¦ 2:50.19  211.¦ 3:17.34  220.¦   27.15  254.¦ 4:41.26  236.¦
  253. Avi Mauro            66 Baselga di Pinè      Bren Team Trento                 5:24.35,6   1:47.02,9  (2666)  M110     820.  20,333 ¦  1:24.56  174.¦ 2:49.48  201.¦ 3:16.46  213.¦   26.58  240.¦ 4:39.06  229.¦
  254. Bonatti Stefano      66 Vezzano Ligure (SP)  GS Rudy Project                  5:24.50,1   1:47.17,4  (6754)  M110     824.  20,318 ¦  1:31.20  304.¦ 2:56.40  255.¦ 3:25.07  263.¦   28.27  317.¦ 4:42.20  245.¦
  255. Liebert Christoph    63 D-Obergünzburg       TSV Obergunzburg                 5:24.51,0   1:47.18,3  (7932)  M110     825.  20,317 ¦  1:21.15  124.¦ 2:42.40  142.¦ 3:10.44  166.¦   28.04  295.¦ 4:43.47  254.¦
  256. Ricci Alessandro     65 Molicciara           Gs Bici Center                   5:25.08,3   1:47.35,6  (8567)  M110     827.  20,299 ¦  1:30.48  292.¦ 2:58.40  270.¦ 3:27.00  274.¦   28.19  302.¦ 4:47.10  271.¦
  257. Cantarelli Gino      65 Massa                Club Alpi Apuane                 5:25.30,8   1:47.58,1  (4310)  M110     832.  20,275 ¦  1:27.43  220.¦ 2:52.23  227.¦ 3:20.19  232.¦   27.55  291.¦ 4:41.29  237.¦
  258. Daminato Piervittori 61 Chieri               Antares team                     5:25.38,9   1:48.06,2  (4413)  M110     835.  20,267 ¦  1:31.43  313.¦ 2:55.53  250.¦ 3:23.53  253.¦   28.00  293.¦ 4:45.15  261.¦
  259. Rocchi Franco        66 Corpolò              GC Corpoló                       5:26.11,8   1:48.39,1  (2886)  M110     841.  20,233 ¦  1:20.57  120.¦ 3:00.26  284.¦ 3:24.07  254.¦   23.40   94.¦ 4:48.21  273.¦
  260. Sala Marco Paolo     64 Monza                HALLOWEEN BIKERS TEAM            5:26.16,8   1:48.44,1  (8661)  M110     845.  20,228 ¦  1:26.20  204.¦ 2:49.53  202.¦ 3:18.14  224.¦   28.21  309.¦ 4:44.18  258.¦
  261. Bertoncini Andrea    63 Ponte all'Ania       GS Piemme Sport                  5:26.38,5   1:49.05,8  (6684)  M110     851.  20,205 ¦  1:27.43  221.¦ 2:52.19  226.¦ 3:21.26  239.¦   29.06  356.¦ 4:45.33  264.¦
  262. Baldassarre Francesc 65 Villafranca di Veron GGMP Testi Cicli-Olmo            5:27.08,7   1:49.36,0  (6561)  M110     855.  20,174 ¦  1:30.19  276.¦ 2:53.10  232.¦ 3:20.56  237.¦   27.46  285.¦ 4:45.10  260.¦
  263. Ravanelli Lionello   62 Albiano              Bren Team Trento                 5:27.28,5   1:49.55,8  (2678)  M110     862.  20,154 ¦  1:24.54  172.¦ 2:49.30  200.¦ 3:16.47  214.¦   27.16  256.¦ 4:42.17  244.¦
  264. Brkic Halid          64 A-Neustift           SV-Schlickeralm                  5:27.34,6   1:50.01,9  (4029)  M110     863.  20,147 ¦  1:23.07  147.¦ 2:46.17  181.¦ 3:15.03  198.¦   28.45  339.¦ 4:42.56  249.¦
  265. Benvenuto Paolo      63 Portogruaro          Cicloturistica Portogruarese     5:27.44,8   1:50.12,1  (4799)  M110     864.  20,137 ¦  1:27.04  211.¦ 3:00.37  285.¦ 3:26.45  273.¦   26.08  193.¦ 4:49.14  278.¦
  266. Timaco Alfredo       63 Lendinara            SS Libertas Ramodipalo Rasa      5:28.08,9   1:50.36,2  (6258)  M110     870.  20,112 ¦  1:30.51  295.¦ 3:00.53  289.¦ 3:28.20  280.¦   27.27  266.¦ 4:51.15  287.¦
  267. Abbate Pellegrino    62 Parma                AS Tecno Bici                    5:28.33,3   1:51.00,6  (6182)  M110     876.  20,087 ¦  1:29.18  255.¦ 2:54.50  244.¦ 3:22.23  246.¦   27.33  275.¦ 4:40.52  235.¦
  268. Boifava Fabio        64 Nuvolento BS         GS Carrera                       5:29.14,7   1:51.42,0  (6740)  M110     883.  20,045 ¦  1:30.02  267.¦ 2:57.27  262.¦ 3:25.05  262.¦   27.37  279.¦ 4:45.15  262.¦
  269. Vidossi Andrea       66 Monfalcone           Team Sclauzero-Starbene          5:29.22,6   1:51.49,9  (2751)  M110     885.  20,037 ¦  1:31.00  296.¦ 2:57.56  266.¦ 3:27.47  277.¦   29.51  384.¦ 4:49.52  281.¦
  270. Wasser Markus        65 D-Korntal-Münchingen                                  5:29.29,5   1:51.56,8  (5446)  M110     888.  20,030 ¦  1:32.59  339.¦ 3:02.39  300.¦ 3:29.34  290.¦   26.54  237.¦ 4:47.24  272.¦
  271. Gandini Alberto      61 Parma                AS Tecno Bici                    5:29.32,2   1:51.59,5  (6177)  M110     890.  20,028 ¦  1:28.57  251.¦ 2:53.15  233.¦ 3:22.24  247.¦   29.08  357.¦ 4:42.02  243.¦
  272. Sardi Luigi          64 Bagnolo Mella (BS)   GS Pedale Bagnolese              5:29.37,4   1:52.04,7  (2835)  M110     891.  20,022 ¦  1:24.46  170.¦ 2:57.48  264.¦ 3:25.15  265.¦   27.26  265.¦ 4:46.33  266.¦
  273. Battistotti Marco    65 San Rocco al Porto L Cycling Club S. Rocco al Porto   5:30.00,1   1:52.27,4  (4598)  M110     902.  19,999 ¦  1:27.21  216.¦ 2:49.04  196.¦ 3:15.24  202.¦   26.20  206.¦ 4:47.06  270.¦
  274. Bertoni Francesco    62 Pralboino (BS)       G.S. Club di Grande              5:30.04,3   1:52.31,6  (3031)  M110     903.  19,995 ¦  1:40.30  464.¦ 3:11.01  363.¦ 3:37.30  344.¦   26.29  216.¦ 4:51.35  290.¦
  275. Ugolini Giuseppe     61 Pedemonte VR         G.S.Pedemonte                    5:30.30,1   1:52.57,4  (9053)  M110     909.  19,969 ¦  1:27.59  228.¦ 3:02.02  296.¦ 3:29.21  286.¦   27.18  258.¦ 4:49.52  280.¦
  276. Gioffrè Paolo        66 Sieci                Club Franco Ballerini            5:30.33,2   1:53.00,5  (1214)  M110     910.  19,966 ¦  1:18.13   75.¦ 2:39.42  122.¦ 3:09.59  158.¦   30.17  403.¦ 4:41.52  239.¦
  277. Pesaresi Gabriele    61 Santarcangelo di R.  GS Olimpia Nuova                 5:30.45,3   1:53.12,6  (8395)  M110     914.  19,954 ¦     ----  ----¦ 2:54.25  242.¦ 3:21.56  241.¦   27.31  272.¦ 4:46.38  268.¦
  278. Masera Giovanni      64 Milano               ASD Zanazzi                      5:30.52,3   1:53.19,6   (198)  M110     915.  19,947 ¦     ----  ----¦    ----  ----¦ 3:28.32  281.¦    ----  ----¦    ----  ----¦
  279. Zuccarello Fausto    61 Lancenico            GC Polisportiva Catena           5:31.08,0   1:53.35,3  (9324)  M110     920.  19,931 ¦  1:28.00  229.¦ 3:02.12  298.¦ 3:29.12  285.¦   26.59  242.¦ 4:52.00  292.¦
  280. Rossi Enea           66 Montebello della Bat G.S.C. AVIS PAVIA                5:31.14,6   1:53.41,9  (8621)  M110     922.  19,924 ¦  1:30.30  284.¦ 2:59.08  275.¦ 3:26.37  272.¦   27.29  270.¦ 4:49.07  276.¦
  281. Schlier Stephan      61 D-Haar/München       TSV Haar Spinning Racketpark     5:31.33,0   1:54.00,3  (5405)  M110     925.  19,906 ¦  1:25.53  192.¦ 2:51.33  220.¦ 3:20.21  233.¦   28.48  343.¦ 4:48.48  275.¦
  282. Früh Rainer          61 D-Sonnenbühl         TSV Undingen                     5:31.36,4   1:54.03,7  (7318)  M110     928.  19,903 ¦  1:23.02  145.¦ 2:45.13  165.¦ 3:15.12  200.¦   29.58  392.¦ 4:40.30  233.¦
  283. Bignami Mario        62 Santo Stefano Lodigi Cycling Club S. Rocco al Porto   5:31.36,9   1:54.04,2  (6171)  M110     929.  19,902 ¦  1:36.43  413.¦ 3:07.27  333.¦ 3:34.38  321.¦   27.11  252.¦ 4:50.44  285.¦
  284. Mirra Marco          62 Forlì                SC VECCHIAZZANO                  5:32.04,7   1:54.32,0  (6053)  M110     936.  19,874 ¦  1:30.49  294.¦ 2:56.37  254.¦ 3:25.28  266.¦   28.51  348.¦ 4:52.05  293.¦
  285. Mazzoli Marco        65 Firenze              U.L. S. Felice a Ema             5:32.12,4   1:54.39,7  (8089)  M110     940.  19,867 ¦  1:31.38  311.¦ 2:59.41  279.¦ 3:29.06  284.¦   29.25  367.¦ 4:52.14  294.¦
  286. Scaroni Ernesto      61 Mazzano              GS Carrera                       5:32.17,0   1:54.44,3  (5079)  M110     944.  19,862 ¦  1:32.50  336.¦ 3:00.48  288.¦ 3:29.30  289.¦   28.42  337.¦ 4:50.59  286.¦
  287. Bernabei Alessandro  64 Ravenna              GS Classense Ravenna             5:32.25,1   1:54.52,4  (2716)  M110     948.  19,854 ¦  1:25.42  188.¦ 2:57.32  263.¦ 3:25.14  264.¦   27.42  282.¦ 4:49.12  277.¦
  288. Kalka Reiner         63 D-Garmisch-Partenkir Keiner                           5:32.26,9   1:54.54,2  (7731)  M110     949.  19,852 ¦  1:28.16  235.¦ 3:07.49  338.¦ 3:36.58  338.¦   29.09  358.¦ 4:51.30  288.¦
  289. Lattanzi Massimo     63 Viterbo              G.C.CICLI MONTANINI              5:32.36,6   1:55.03,9  (7885)  M110     952.  19,843 ¦  1:28.21  238.¦ 2:58.47  271.¦    ----  ----¦    ----  ----¦ 4:50.42  284.¦
  290. Lionetti Walter      62 Milano               Club 2 ruote                     5:32.41,7   1:55.09,0  (7944)  M110     953.  19,837 ¦  1:25.11  183.¦ 2:50.29  213.¦ 3:19.44  228.¦   29.14  362.¦ 4:44.13  257.¦
  291. Oliehoek Aad         63 NL-MH Wassernaar     En Route                         5:32.45,5   1:55.12,8  (1575)  M110     954.  19,834 ¦  1:30.16  272.¦ 3:03.33  308.¦ 3:32.13  305.¦   28.39  330.¦ 4:49.20  279.¦
  292. Lodolo Giovanni      63 Udine                Team Granzon                     5:33.00,1   1:55.27,4  (3442)  M110     956.  19,819 ¦  1:30.24  282.¦ 2:58.20  268.¦ 3:25.52  270.¦   27.31  273.¦ 4:48.35  274.¦
  293. Kober Andreas        63 D-Treuen                                              5:33.34,8   1:56.02,1  (7800)  M110     967.  19,785 ¦     ----  ----¦ 2:53.42  237.¦ 3:22.14  244.¦   28.32  322.¦ 4:50.39  283.¦
  294. Katzschmann Michael  66 D-Ilmenau                                             5:34.17,1   1:56.44,4  (7748)  M110     973.  19,743 ¦  1:32.14  325.¦ 3:11.20  367.¦ 3:37.52  347.¦   26.32  223.¦ 4:54.32  301.¦
  295. Steffl Christian     65 D-Ohlstadt                                            5:35.22,4   1:57.49,7  (8901)  M110     990.  19,679 ¦  1:28.14  234.¦ 3:07.52  340.¦ 3:36.58  337.¦   29.06  355.¦ 4:51.31  289.¦
  296. Guidi Giuseppe       61 Dicomano             G.s.dicomano.bici                5:35.29,5   1:57.56,8  (3818)  M110     993.  19,672 ¦  1:28.48  248.¦ 2:57.09  260.¦ 3:24.39  257.¦   27.30  271.¦ 4:53.07  299.¦
  297. Del Vecchio Franco   61 Santarcangelo di Rom Bike Team Lgl                    5:35.42,3   1:58.09,6  (5236)  M110     997.  19,660 ¦  1:30.06  269.¦ 3:09.23  349.¦ 3:34.21  318.¦   24.57  138.¦ 4:53.01  297.¦
  298. Santarini Stefano    64 Poggio Berni         GS Olimpia Nuova                 5:35.42,7   1:58.10,0  (5126)  M110     998.  19,659 ¦  1:30.05  268.¦ 3:09.23  350.¦ 3:34.52  323.¦   25.28  159.¦ 4:53.06  298.¦
  299. Bortolotti Adriano   62 Fogliano Redipuglia  AR Fincantieri                   5:36.03,3   1:58.30,6  (6779)  M110     1001. 19,639 ¦  1:37.58  434.¦ 3:07.26  332.¦ 3:34.21  319.¦   26.55  238.¦ 4:57.33  310.¦
  300. Krischka Peter       61 D-Stuttgart                                           5:36.04,6   1:58.31,9  (4364)  M110     1002. 19,638 ¦  1:33.02  342.¦ 3:03.15  306.¦ 3:30.37  294.¦   27.21  260.¦ 4:49.57  282.¦
  301. Gerboni Roberto      62 Fucecchio            Bhoss King Bike                  5:36.13,3   1:58.40,6  (7384)  M110     1003. 19,629 ¦  1:31.56  321.¦ 3:04.14  313.¦ 3:32.52  309.¦   28.37  328.¦ 4:59.06  315.¦
  302. Zonato Marco         65 Chiampo              Ciclismo Valchiampo              5:36.22,6   1:58.49,9  (6249)  M110     1004. 19,620 ¦  1:30.06  269.¦ 2:55.28  248.¦ 3:23.27  250.¦   27.58  292.¦ 4:51.47  291.¦
  303. Agliana Alessandro   61 Prato                UC Pedale Sangiorgese            5:36.24,1   1:58.51,4  (4676)  M110     1005. 19,619 ¦  1:36.07  398.¦ 3:04.35  316.¦ 3:43.21  390.¦   38.46  582.¦ 4:55.53  304.¦
  304. Agnorelli Marco      62 Prato                UC Pedale Sangiorgese            5:36.40,0   1:59.07,3  (4672)  M110     1013. 19,603 ¦  1:35.42  388.¦ 3:04.45  317.¦ 3:45.10  397.¦   40.25  584.¦ 4:54.17  300.¦
  305. Fedrigucci Gian Fran 64 Urbino               A.S. Ciclo Ducale Urbino         5:36.50,0   1:59.17,3  (7231)  M110     1014. 19,594 ¦  1:34.51  376.¦ 3:07.37  335.¦ 3:36.34  333.¦   28.57  352.¦ 4:56.45  307.¦
  306. Aversa Roberto       64 Roma                 Cicli Mirtella                   5:37.04,1   1:59.31,4  (6542)  M110     1017. 19,580 ¦  1:31.26  305.¦ 3:00.37  286.¦ 3:30.32  293.¦   29.55  389.¦ 4:57.02  308.¦
  307. Chiocci Luigi        65 Costacciaro          GS Avis Gualdo Tadino            5:37.43,7   2:00.11,0  (4332)  M110     1026. 19,542 ¦  1:39.01  446.¦ 3:18.37  413.¦ 3:49.41  416.¦   31.03  434.¦ 5:01.08  328.¦
  308. Mutschler Horst      65 D-Gutsbezirk Münsing TSG Münsingen                    5:37.47,9   2:00.15,2  (8231)  M110     1028. 19,538 ¦  1:28.02  230.¦ 2:57.17  261.¦ 3:24.42  259.¦   27.25  264.¦ 4:52.54  296.¦
  309. Barosi Raffaele      66 Santarcangelo di Rom GS Olimpia Nuova                 5:38.23,4   2:00.50,7  (6589)  M110     1036. 19,504 ¦  1:29.27  258.¦ 3:05.54  323.¦ 3:35.58  330.¦   30.03  397.¦    ----  ----¦
  310. Brunelli Fabrizio    61 SAN PIERO A SIEVE (F CICLISTICA IL REGOLO             5:38.33,1   2:01.00,4  (3297)  M110     1039. 19,494 ¦  1:33.59  361.¦ 3:01.27  294.¦ 3:30.18  292.¦   28.51  346.¦ 4:57.08  309.¦
  311. Sapori Fabio         66 Verucchio            GS Marin MTB Cicli Matteoni      5:39.14,9   2:01.42,2  (4444)  M110     1046. 19,454 ¦  1:41.14  472.¦ 3:13.16  389.¦ 3:38.57  353.¦   25.41  174.¦ 4:54.47  302.¦
  312. Möhrle Matthias      65 D-Blaubeuren                                          5:39.24,9   2:01.52,2  (8161)  M110     1048. 19,445 ¦  1:45.22  528.¦ 3:17.56  412.¦ 3:45.38  403.¦   27.42  283.¦ 5:00.56  327.¦
  313. Dallara Graziano     62 Ghiare di Berceto    Velo Club La Bici                5:39.43,6   2:02.10,9  (3639)  M110     1051. 19,427 ¦  1:27.53  226.¦ 2:51.00  215.¦ 3:16.52  215.¦   25.52  179.¦ 4:55.35  303.¦
  314. Schmidt Olaf         64 D-Dresden            MTB Team Lößnitz                 5:40.09,0   2:02.36,3  (8761)  M110     1057. 19,403 ¦  1:30.28  283.¦ 3:07.10  327.¦ 3:35.30  326.¦   28.20  304.¦ 4:59.18  317.¦
  315. Vottero Mario        65 Venaria (To)         Team Cicloteca                   5:40.13,7   2:02.41,0  (3521)  M110     1059. 19,398 ¦  1:32.03  322.¦ 3:02.18  299.¦ 3:30.45  295.¦   28.27  318.¦ 4:56.08  305.¦
  316. Kaufmann Volkmar     64 D-München                                             5:40.29,7   2:02.57,0  (7749)  M110     1065. 19,383 ¦  1:32.04  323.¦ 3:01.08  291.¦ 3:31.35  299.¦   30.27  406.¦ 4:59.05  313.¦
  317. Bini Giuseppe        65 Prato                A.C.Windest                      5:40.53,1   2:03.20,4  (6712)  M110     1066. 19,361 ¦  1:33.09  346.¦ 2:58.39  269.¦ 3:36.18  331.¦   37.39  573.¦ 4:59.15  316.¦
  318. Lauberger Bernd      65 D-Tegernheim         RSC '88 Regensburg               5:41.10,9   2:03.38,2  (7888)  M110     1072. 19,344 ¦  1:30.17  273.¦ 3:02.45  301.¦ 3:30.18  291.¦   27.32  274.¦ 5:02.24  334.¦
  319. Paternollo Renato    62 Milano               Carpentari team                  5:41.27,7   2:03.55,0  (3604)  M110     1077. 19,328 ¦  1:32.13  324.¦ 3:10.43  360.¦ 3:39.08  356.¦   28.25  311.¦ 5:00.33  322.¦
  320. Peresson Renzo       61 Trieste              SC Gentlemen Trieste             5:41.33,6   2:04.00,9  (4511)  M110     1079. 19,323 ¦  1:34.31  369.¦ 3:03.03  305.¦ 3:32.33  308.¦   29.30  373.¦ 5:00.50  326.¦
  321. Sforza Nicola Marco  62 Bologna              Prozac Bike Team                 5:42.01,1   2:04.28,4  (3505)  M110     1082. 19,297 ¦  1:30.31  285.¦ 2:56.14  251.¦ 3:24.41  258.¦   28.26  314.¦ 4:52.22  295.¦
  322. Kools Ramon          65 NL-Schimmert         Jos Feron                        5:42.30,1   2:04.57,4  (5149)  M110     1087. 19,269 ¦  1:24.30  166.¦ 3:08.06  342.¦ 3:35.58  329.¦   27.52  289.¦ 4:56.12  306.¦
  323. Rosaverde Daniele    61 Cartoceto            A.S. TEAM GALIARDI               5:42.43,1   2:05.10,4  (3493)  M110     1090. 19,257 ¦  1:34.01  362.¦ 3:09.47  353.¦ 3:39.15  357.¦   29.28  370.¦ 5:02.30  335.¦
  324. Beati Mauro          65 tradate              Polisportiva Besanese            5:43.18,4   2:05.45,7  (3361)  M110     1101. 19,224 ¦  1:24.12  162.¦ 2:53.19  235.¦ 3:25.33  267.¦   32.13  468.¦ 4:58.29  312.¦
  325. Severi Stefano       64 CARPI (MO)           BICISPORT                        5:43.23,8   2:05.51,1  (3335)  M110     1103. 19,219 ¦  1:33.14  348.¦ 3:00.20  283.¦ 3:28.40  282.¦   28.19  302.¦ 5:03.24  343.¦
  326. Teinert Michael      65 D-Northeim                                            5:44.04,8   2:06.32,1  (8971)  M110     1113. 19,181 ¦  1:37.20  422.¦ 3:08.51  348.¦ 3:37.17  341.¦   28.26  315.¦ 5:02.06  331.¦
  327. Levantesi Mauro      66 Sant'Elpidio a Mare  Nuovo Pedale Civitanovese        5:44.25,8   2:06.53,1  (7926)  M110     1118. 19,162 ¦  1:33.39  355.¦ 3:09.39  352.¦ 3:36.47  334.¦   27.08  249.¦ 5:02.16  332.¦
  328. Rustighi Alessandro  65 Massa                Club Alpi Apuane                 5:44.32,6   2:06.59,9  (4305)  M110     1120. 19,155 ¦  1:32.56  338.¦ 3:03.55  309.¦ 3:32.04  302.¦   28.09  296.¦ 4:59.44  318.¦
  329. Rinaldi Fabio        63 Rimini               GS Marin MTB Cicli Matteoni      5:44.34,4   2:07.01,7  (4439)  M110     1123. 19,154 ¦  1:30.20  279.¦ 3:01.55  295.¦ 3:31.59  301.¦   30.04  398.¦ 4:57.35  311.¦
  330. Schineis Jürgen      66 D-Wildpoldsried      TSV Obergunzburg                 5:44.40,0   2:07.07,3  (8738)  M110     1125. 19,148 ¦  1:37.45  428.¦ 3:09.35  351.¦ 3:39.28  358.¦   29.52  387.¦ 5:02.43  337.¦
  331. Achilles Stefan      65 D-Immenstadt         Lech Angels                      5:44.41,3   2:07.08,6  (1543)  M110     1126. 19,147 ¦  1:30.17  274.¦ 3:07.01  326.¦ 3:34.49  322.¦   27.47  287.¦ 5:02.18  333.¦
  332. Pattacini Gianluca   64 Noceto               GC Monta in Bici                 5:45.05,0   2:07.32,3  (5105)  M110     1133. 19,125 ¦  1:47.06  546.¦ 3:19.50  419.¦ 3:49.54  418.¦   30.04  399.¦ 5:07.03  358.¦
  333. Bertoni Massimo      65 SARZANA (SP)         G.S. G. BATTISTINI FOSDINOVO     5:45.21,8   2:07.49,1  (6686)  M110     1138. 19,110 ¦  1:36.01  395.¦ 3:11.05  365.¦ 3:39.41  361.¦   28.35  325.¦ 5:02.37  336.¦
  334. Bezze Andrea         64 Padova               AR Team Armistizio Hard Servic   5:45.30,3   2:07.57,6  (6696)  M110     1140. 19,102 ¦  1:33.45  357.¦ 3:13.24  392.¦ 3:41.44  378.¦   28.20  307.¦ 5:03.15  341.¦
  335. Montani Alessandro   64 Borgo San Lorenzo    GS Vicchio Bike                  5:45.31,3   2:07.58,6  (8169)  M110     1141. 19,101 ¦  1:31.10  299.¦ 3:10.36  358.¦ 3:38.53  352.¦   28.17  300.¦ 5:00.24  321.¦
  336. Di Bella Orazio      62 Marzabotto           Sasso Marconi                    5:45.35,1   2:08.02,4  (6445)  M110     1142. 19,098 ¦  1:30.41  290.¦ 3:08.31  345.¦ 3:36.18  331.¦   27.47  288.¦ 5:04.32  345.¦
  337. Donato Gian Luca     61 Roma                 Petit Veló                       5:45.53,6   2:08.20,9   (117)  M110     1148. 19,081 ¦  1:44.52  520.¦ 3:11.47  374.¦ 3:39.40  360.¦   27.52  290.¦ 5:00.19  320.¦
  338. Visaggi Egidio       63 Terlizzi             Bren Team Trento                 5:45.57,6   2:08.24,9  (2670)  M110     1151. 19,077 ¦  1:31.54  319.¦ 3:03.01  303.¦ 3:31.11  297.¦   28.10  297.¦ 4:59.06  314.¦
  339. Fabbris Rossano      62 Meda MI              GS Byroll                        5:46.29,4   2:08.56,7  (3099)  M110     1155. 19,048 ¦  1:32.38  334.¦ 3:07.19  330.¦ 3:38.07  348.¦   30.47  421.¦ 5:06.25  356.¦
  340. Stella Sandro        65 Lendinara            SS Libertas Ramodipalo Rasa      5:46.37,8   2:09.05,1  (6253)  M110     1158. 19,040 ¦  1:31.32  309.¦ 3:12.44  386.¦ 3:41.30  375.¦   28.45  340.¦ 5:07.33  360.¦
  341. Prezzi Enrico        66 Riva del Garda       Team Guaita Bike                 5:46.55,5   2:09.22,8  (4252)  M110     1163. 19,024 ¦  1:36.29  403.¦ 3:08.40  347.¦ 3:35.32  327.¦   26.52  236.¦ 5:05.13  349.¦
  342. Del Bene Riccardo    66 Sansepolcro          Ciclistica Sansepolcro           5:47.08,7   2:09.36,0  (7083)  M110     1167. 19,012 ¦  1:28.22  239.¦ 3:07.45  337.¦ 3:35.13  324.¦   27.27  267.¦ 5:05.03  347.¦
  343. Niedrist Walter      61 A-Patsch             Radclub Hochpustertal            5:47.10,7   2:09.38,0  (8272)  M110     1169. 19,010 ¦  1:39.06  449.¦ 3:12.26  384.¦ 3:40.42  367.¦   28.15  299.¦ 5:01.55  330.¦
  344. Versari Maurizio     64 Forlì                Team Sintesi-Italpaghe           5:47.21,9   2:09.49,2  (9127)  M110     1172. 19,000 ¦  1:30.38  289.¦ 3:02.51  302.¦ 3:33.21  313.¦   30.29  407.¦ 5:00.47  325.¦
  345. Truffo Nicola        63 Padova               AR Team Armistizio Hard Servic   5:47.24,2   2:09.51,5  (9047)  M110     1174. 18,998 ¦  1:31.54  320.¦ 3:08.23  344.¦ 3:36.52  336.¦   28.28  319.¦ 5:06.22  355.¦
  346. Verno Mirco          65 Oderzo TV            VELOCLUB FUORISOGLIA - PN        5:47.32,5   2:09.59,8  (3904)  M110     1176. 18,990 ¦  1:36.34  405.¦ 3:11.26  370.¦ 3:43.09  386.¦   31.42  452.¦ 5:05.19  350.¦
  347. Holzmann Martin      64 A-Steinach am Brenne                                  5:47.34,0   2:10.01,3  (7662)  M110     1177. 18,989 ¦  1:35.04  379.¦ 3:14.11  401.¦ 3:43.09  387.¦   28.58  353.¦ 5:05.25  352.¦
  348. Nuti Antonio         61 Firenze              Team Le Lame Pro Bike            5:47.56,2   2:10.23,5  (3598)  M110     1180. 18,968 ¦  1:34.23  367.¦ 2:59.06  274.¦ 3:27.58  278.¦   28.51  347.¦ 5:00.42  324.¦
  349. Valgimigli Fabio     64 Firenze              Team le lame probike             5:47.56,9   2:10.24,2  (2908)  M110     1181. 18,968 ¦  1:34.22  366.¦ 2:59.23  277.¦ 3:27.59  279.¦   28.36  326.¦ 5:00.04  319.¦
  350. Benvenuti Franco     64 Poggio Berni         GS Olimpia Nuova                 5:47.58,1   2:10.25,4  (5120)  M110     1183. 18,967 ¦  1:26.44  208.¦ 3:04.20  314.¦ 3:33.09  311.¦   28.49  345.¦ 5:03.23  342.¦
  351. Tomasin Giampaolo    62 Gradisa d' Isonzo    GS Roby Calzature                5:48.12,8   2:10.40,1  (1811)  M110     1187. 18,953 ¦  1:32.56  337.¦ 3:11.01  362.¦ 3:39.55  363.¦   28.54  350.¦ 5:05.04  348.¦
  352. Kalpen Alexander     63 D-Unterhaching       GS di Monaco                     5:48.15,7   2:10.43,0  (7733)  M110     1189. 18,951 ¦  1:32.59  340.¦ 3:07.42  336.¦ 3:37.15  339.¦   29.33  376.¦ 5:01.51  329.¦
  353. Hunke Roland         64 D-Ulmen                                               5:48.25,1   2:10.52,4  (5299)  M110     1191. 18,942 ¦  1:35.54  392.¦ 3:10.42  359.¦ 3:37.48  346.¦   27.05  246.¦ 5:03.01  338.¦
  354. Schädler Jens        66 D-Erfurt             Rad- Art racing e.V.             5:48.26,8   2:10.54,1  (8707)  M110     1192. 18,941 ¦  1:35.22  383.¦ 3:11.04  364.¦ 3:41.41  377.¦   30.36  411.¦ 5:08.02  363.¦
  355. Boccafoli Stefano    64 Verona               SPORT ALLIANCE BIKE - BUTTY      5:48.56,4   2:11.23,7  (6440)  M110     1199. 18,914 ¦  1:34.44  372.¦ 3:17.06  409.¦ 3:45.33  401.¦   28.27  316.¦ 5:10.46  376.¦
  356. Heidl Steffen        63 D-Penig              Velofreunde Biker Chemnitz       5:48.58,6   2:11.25,9  (5287)  M110     1200. 18,912 ¦  1:33.51  358.¦ 3:07.32  334.¦ 3:37.20  342.¦   29.48  382.¦ 5:07.59  362.¦
  357. Cucchi Fausto        61 Quattro Castella     Ciclistica Sampolese             5:49.17,6   2:11.44,9  (3080)  M110     1206. 18,895 ¦  1:34.48  373.¦ 3:14.54  403.¦ 3:42.34  382.¦   27.40  281.¦ 5:08.22  365.¦
  358. Cereda Roberto       66 Brescia              L'Edile Rosa Gaverina            5:49.21,8   2:11.49,1  (4053)  M110     1208. 18,891 ¦  1:31.49  316.¦ 3:04.49  318.¦ 3:35.15  325.¦   30.26  405.¦ 5:08.06  364.¦
  359. Holzapfel Willi      61 D-München                                             5:49.32,6   2:11.59,9  (7659)  M110     1213. 18,881 ¦     ----  ----¦ 3:11.49  376.¦ 3:38.37  349.¦   26.47  231.¦ 5:00.34  323.¦
  360. Rebecchi Andrea      64 Carpi                FLORIO TEAM VELOSPORT            5:50.12,2   2:12.39,5  (3486)  M110     1228. 18,846 ¦  1:33.16  349.¦ 3:04.00  310.¦ 3:33.29  314.¦   29.29  372.¦ 5:09.48  373.¦
  361. De Martino Giuseppe  62 Milano               GS Circolo Giovanile Bresso      5:50.19,2   2:12.46,5  (7069)  M110     1230. 18,839 ¦  1:31.15  302.¦ 3:04.11  311.¦ 3:33.32  315.¦   29.21  365.¦ 5:05.23  351.¦
  362. Nuss Thomas          61 D-Winnenden                                           5:50.57,0   2:13.24,3  (8287)  M110     1236. 18,806 ¦  1:36.23  401.¦ 3:11.28  371.¦ 3:39.02  355.¦   27.34  277.¦ 5:07.22  359.¦
  363. Bandini Paolo        61 Neviano degli Arduin Pedale Val Parma                 5:51.31,7   2:13.59,0  (6283)  M110     1241. 18,775 ¦  1:33.02  343.¦ 3:08.21  343.¦ 3:35.44  328.¦   27.22  261.¦ 5:08.45  368.¦
  364. Schnabl Günther      61 A-Villach                                             5:51.43,7   2:14.11,0  (3241)  M110     1246. 18,764 ¦  1:39.48  457.¦ 3:21.12  429.¦ 3:48.18  410.¦   27.06  247.¦ 5:12.28  383.¦
  365. Linn Stefan          62 D-Griesheim                                           5:51.54,9   2:14.22,2  (7942)  M110     1250. 18,754 ¦  1:31.44  314.¦ 3:11.00  361.¦ 3:39.33  359.¦   28.33  324.¦ 5:09.03  370.¦
  366. Lugli Claudio        65 Albinea - Reggio Emi Polisportiva Albinetana          5:51.56,3   2:14.23,6  (4155)  M110     1251. 18,753 ¦  1:32.26  328.¦ 3:04.55  319.¦ 3:40.13  365.¦   35.17  553.¦ 5:04.32  346.¦
  367. Croce Carlo          65 VIA U.BETTI 4        MAPEI                            5:52.06,3   2:14.33,6  (7032)  M110     1252. 18,744 ¦  1:35.07  380.¦ 3:14.00  397.¦ 3:41.08  369.¦   27.08  250.¦ 5:08.28  366.¦
  368. Casamonti Stefano    63 Firenze              U.L. S. Felice a Ema             5:52.14,7   2:14.42,0  (6912)  M110     1256. 18,736 ¦  1:32.33  333.¦ 3:05.22  320.¦ 3:34.34  320.¦   29.12  359.¦ 5:04.22  344.¦
  369. Messori Carlo        61 Correggio (RE)       Polisportiva Correggio           5:52.17,2   2:14.44,5  (8122)  M110     1258. 18,734 ¦  1:33.30  352.¦ 3:13.53  396.¦ 3:38.43  351.¦   24.50  132.¦ 5:03.12  339.¦
  370. Berni Stefano        61 Correggio (RE)       Polisportiva Correggio           5:52.17,6   2:14.44,9  (4587)  M110     1259. 18,734 ¦  1:33.30  351.¦ 3:13.53  395.¦ 3:41.54  379.¦   28.00  294.¦ 5:03.12  340.¦
  371. Talamucci Luca       64 Prato                Gaggio 1989                      5:52.23,5   2:14.50,8  (6041)  M110     1260. 18,729 ¦  1:39.03  447.¦ 3:11.22  369.¦ 3:41.24  373.¦   30.01  395.¦ 5:08.29  367.¦
  372. Pavesi Giovanni      62 vailate (cr)         CC Pierino Baffi                 5:52.24,4   2:14.51,7  (3745)  M110     1262. 18,728 ¦  1:28.42  245.¦ 3:02.11  297.¦ 3:32.17  306.¦   30.05  400.¦ 5:05.34  353.¦
  373. Moncalero Bruno      61 Borgo San Dalmazzo   Cicli Pepino Cuneo               5:52.35,6   2:15.02,9  (2693)  M110     1267. 18,718 ¦  1:32.59  341.¦ 3:20.34  425.¦ 3:50.16  419.¦   29.42  380.¦ 5:17.46  408.¦
  374. Fossati Luca         62 Mondovì              Cicli Asteggiano                 5:53.50,0   2:16.17,3  (2800)  M110     1280. 18,652 ¦  1:36.35  406.¦ 3:11.44  373.¦ 3:41.13  370.¦   29.28  371.¦ 5:10.21  375.¦
  375. Baviera Luigi        62 Castenaso            Faenza Cycling Team              5:54.03,7   2:16.31,0  (4662)  M110     1284. 18,640 ¦  1:31.37  310.¦ 3:01.20  293.¦ 3:32.08  304.¦   30.48  423.¦ 5:06.22  354.¦
  376. Picchi Domenico Marc 62 Mediano              BIKEXTREME ALTA VAL D'ENZA       5:54.07,1   2:16.34,4  (8414)  M110     1285. 18,637 ¦  1:34.18  364.¦ 3:10.20  356.¦ 3:39.00  354.¦   28.40  332.¦ 5:09.35  372.¦
  377. Romanin Gianluigi    64 Tolmezzo             Carnia Bike                      5:54.11,7   2:16.39,0  (1779)  M110     1286. 18,633 ¦  1:35.44  389.¦ 3:10.03  355.¦ 3:39.54  362.¦   29.51  385.¦ 5:08.50  369.¦
  378. Grün Christoph       61 D-Weßling            SC Wessling                      5:54.31,3   2:16.58,6  (5274)  M110     1292. 18,616 ¦  1:38.43  441.¦ 3:13.45  394.¦ 3:43.15  389.¦   29.30  373.¦ 5:10.18  374.¦
  379. Fiochi Paolo         66 Cormano              Ciclistica Bruzzano              5:54.38,6   2:17.05,9  (2796)  M110     1293. 18,610 ¦  1:30.20  278.¦ 2:59.59  281.¦ 3:32.54  310.¦   32.54  492.¦ 5:10.50  377.¦
  380. Toppan Giorgio       63 Lissone              GS Circolo Giovanile Bresso      5:54.43,4   2:17.10,7  (9012)  M110     1294. 18,606 ¦  1:35.33  385.¦ 3:06.56  325.¦ 3:37.15  339.¦   30.18  404.¦ 5:11.07  378.¦
  381. Anelli Mirco         63 Rimini               GS Marin MTB Cicli Matteoni      5:55.15,9   2:17.43,2  (4428)  M110     1299. 18,577 ¦  1:40.05  459.¦ 3:20.17  422.¦ 3:48.46  412.¦   28.29  320.¦ 5:15.57  400.¦
  382. Maia Mauro           61 Milano               Cicli Asteggiano                 5:55.34,1   2:18.01,4  (2798)  M110     1301. 18,561 ¦  1:36.40  411.¦ 3:11.44  372.¦    ----  ----¦    ----  ----¦ 5:14.17  389.¦
  383. Rizzoli Paolo        61 San Lazzaro di Saven Faenza Cycling Team              5:55.45,2   2:18.12,5  (4660)  M110     1304. 18,552 ¦  1:31.47  315.¦ 3:01.17  292.¦ 3:32.07  303.¦   30.49  425.¦ 5:07.54  361.¦
  384. Varutti Faustino     63 Torrazza Coste       Dlf voghera                      5:55.56,6   2:18.23,9  (4121)  M110     1307. 18,542 ¦  1:32.28  330.¦ 3:06.49  324.¦ 3:38.41  350.¦   31.51  456.¦ 5:11.19  379.¦
  385. Nuessler Heinz       64 D-Beilngries         1.Fc Beilngries                  5:56.09,3   2:18.36,6  (4400)  M110     1310. 18,531 ¦  1:31.19  303.¦ 3:12.07  383.¦ 3:42.55  384.¦   30.47  422.¦ 5:12.26  382.¦
  386. Hailfinger Jürgen    65 D-Sonnenbühl         TSV Undingen                     5:56.19,6   2:18.46,9  (2055)  M110     1311. 18,522 ¦  1:28.54  250.¦ 2:57.02  258.¦ 3:28.41  283.¦   31.39  449.¦ 5:09.10  371.¦
  387. Ladeiro Pedro        65 D-Offenbach / Main   RSC Rodgau                       5:57.09,5   2:19.36,8  (7868)  M110     1320. 18,479 ¦  1:34.41  371.¦ 3:08.00  341.¦ 3:37.38  345.¦   29.37  377.¦ 5:11.49  381.¦
  388. Ravelli Giuseppe     62 Torre Boldone        GS Cral Posta Bergamo            5:57.14,8   2:19.42,1  (5087)  M110     1321. 18,474 ¦  1:33.18  350.¦ 3:04.34  315.¦ 3:33.20  312.¦   28.45  341.¦ 5:12.50  384.¦
  389. Masi Andrea          63 Campi Bisenzio       Bicisporteam  Firenze            5:57.21,5   2:19.48,8  (6146)  M110     1323. 18,468 ¦  1:36.29  402.¦ 3:16.10  406.¦ 3:45.34  402.¦   29.24  366.¦ 5:15.56  399.¦
  390. Moll Peter           63 D-Konstanz                                            5:58.35,2   2:21.02,5  (8165)  M110     1342. 18,405 ¦  1:29.23  257.¦ 3:11.06  366.¦ 3:37.26  343.¦   26.19  204.¦ 5:07.00  357.¦
  391. Sieber Uwe           64 D-Chemnitz           CPF                              5:58.43,1   2:21.10,4  (8849)  M110     1344. 18,398 ¦  1:35.59  394.¦ 3:17.37  410.¦ 3:47.33  408.¦   29.56  391.¦ 5:16.26  402.¦
  392. Lucani Marco         64 Bisuschio VA         UC Porto Ceresio                 5:59.09,7   2:21.37,0  (5127)  M110     1350. 18,376 ¦  1:36.07  397.¦ 3:23.33  441.¦ 3:49.54  417.¦   26.21  208.¦ 5:15.34  394.¦
  393. Paintner Christian   64 D-Deisenhofen                                         5:59.12,3   2:21.39,6  (5357)  M110     1351. 18,373 ¦  1:39.38  453.¦ 3:12.07  382.¦ 3:41.19  371.¦   29.12  360.¦ 5:16.56  403.¦
  394. Ballreich Axel       61 D-Lauf                                                5:59.51,7   2:22.19,0  (6572)  M110     1356. 18,340 ¦  1:32.27  329.¦ 3:11.49  375.¦ 3:40.31  366.¦   28.42  336.¦ 5:16.10  401.¦
  395. Malossini Vittorio   66 Mazzano              GS Carrera                       5:59.55,3   2:22.22,6  (5078)  M110     1357. 18,337 ¦  1:37.23  423.¦ 3:22.25  434.¦ 3:50.51  422.¦   28.25  311.¦ 5:15.19  393.¦
  396. Caccioppini Stefano  61 la romola (fi)       GRUPPO CICLISTICO LA ROMOLA      5:59.57,9   2:22.25,2  (5098)  M110     1359. 18,335 ¦  1:34.51  375.¦ 3:10.23  357.¦ 3:41.01  368.¦   30.38  413.¦ 5:14.42  392.¦
  397. Martini Fabio        62 Poggio Berni         GS Olimpia Nuova                 6:00.01,1   2:22.28,4  (5119)  M110     1360. 18,332 ¦  1:36.39  409.¦ 3:13.35  393.¦ 3:44.33  395.¦   30.58  431.¦ 5:15.38  396.¦
  398. Masciadri Roberto    62 Como                 RAMPI CLUB BRIANZA               6:00.02,9   2:22.30,2  (3828)  M110     1361. 18,330 ¦  1:35.25  384.¦ 3:14.09  400.¦ 3:45.12  398.¦   31.02  433.¦ 5:14.41  390.¦
  399. Becher Thomas        62 D-Johanngeorgenstadt WSV 08 Johanngeorgenstadt        6:00.07,1   2:22.34,4  (6622)  M110     1363. 18,327 ¦  1:36.16  400.¦ 3:13.23  391.¦ 3:44.28  394.¦   31.05  436.¦ 5:15.43  397.¦
  400. Calvi Filippo        66 Piacenza             D.P carrozzeria piacenza         6:00.15,3   2:22.42,6  (6876)  M110     1366. 18,320 ¦  1:32.44  335.¦ 3:25.31  451.¦ 3:54.12  436.¦   28.40  333.¦ 5:19.33  413.¦
  401. Sperling Werner      61 A-Villach                                             6:00.39,0   2:23.06,3  (3249)  M110     1372. 18,300 ¦  1:36.49  415.¦ 3:20.44  427.¦ 3:49.05  413.¦   28.21  308.¦ 5:20.10  416.¦
  402. Ferrari Alfonso      65 REGGIO EMILIA        POLISPORTIVA ALBINETANA          6:01.01,8   2:23.29,1  (4076)  M110     1376. 18,281 ¦  1:41.30  476.¦ 3:14.03  398.¦ 3:49.16  414.¦   35.13  551.¦ 5:15.34  394.¦
  403. Ariatta Alberto      61 Milano (MI)          Atletica 85 Faenza               6:01.15,3   2:23.42,6  (6117)  M110     1377. 18,269 ¦  1:35.46  390.¦    ----  ----¦ 3:42.02  380.¦    ----  ----¦ 5:17.37  407.¦
  404. Casaroli Paolo       65 Piacenza             Cycling Club S. Rocco al Porto   6:01.23,4   2:23.50,7  (6166)  M110     1378. 18,262 ¦  1:39.21  451.¦ 3:17.51  411.¦ 3:51.51  429.¦   34.00  528.¦ 5:18.39  411.¦
  405. Berlese Paolo        65 Castelfranco Veneto  GS P.D.B. Genova                 6:01.39,7   2:24.07,0  (3534)  M110     1381. 18,249 ¦  1:35.20  382.¦ 3:11.56  379.¦ 3:44.13  393.¦   32.17  473.¦ 5:17.59  409.¦
  406. Raccamari Vittorio   64 Treviso              G.S. PIOGGIA IN FACCIA           6:01.54,5   2:24.21,8  (3992)  M110     1384. 18,236 ¦  1:30.32  286.¦ 3:00.47  287.¦ 3:32.21  307.¦   31.34  446.¦ 5:15.47  398.¦
  407. Prandi Andrea        64 Roma                 Petit Veló                       6:02.05,1   2:24.32,4   (125)  M110     1386. 18,227 ¦  1:40.17  462.¦ 3:16.36  407.¦ 3:45.08  396.¦   28.32  323.¦ 5:11.19  380.¦
  408. Polini Gianmario     65 Credaro              GS Nevi                          6:02.19,0   2:24.46,3  (8461)  M110     1390. 18,216 ¦  1:33.43  356.¦ 3:19.30  416.¦ 3:47.44  409.¦   28.13  298.¦ 5:13.15  385.¦
  409. Rommel Albrecht      65 D-München            Lech Angels                      6:02.52,1   2:25.19,4  (1401)  M110     1402. 18,188 ¦  1:36.02  396.¦ 3:12.40  385.¦ 3:41.21  372.¦   28.40  334.¦ 5:17.28  405.¦
  410. De Paoli Guerrino    62 Santarcangelo        GS Marin MTB Cicli Matteoni      6:03.19,6   2:25.46,9  (4425)  M110     1410. 18,165 ¦  1:27.25  217.¦ 3:14.09  399.¦ 3:43.02  385.¦   28.53  349.¦ 5:17.04  404.¦
  411. Tornow Joachin       61 D-Westerheim         BSG Festo Sparte Rad             6:03.40,9   2:26.08,2  (9015)  M110     1416. 18,147 ¦  1:35.09  381.¦ 3:12.04  380.¦ 3:42.07  381.¦   30.03  396.¦ 5:20.24  417.¦
  412. Belló Renato         63 San Giuseppe di Cass Team Cavalera                    6:05.17,7   2:27.45,0  (2613)  M110     1431. 18,067 ¦  1:39.38  454.¦ 3:25.37  452.¦ 3:54.57  439.¦   29.20  364.¦ 5:17.32  406.¦
  413. Verricelli Stefano   65 Faenza               Individuale                      6:05.22,0   2:27.49,3  (6462)  M110     1432. 18,064 ¦  1:36.08  399.¦ 3:11.52  377.¦ 3:43.10  388.¦   31.18  440.¦ 5:14.01  388.¦
  414. Sandrini Massimo     66 CASTELNUOVO DI ASOLA PEDALE CASTELNOVESE              6:06.04,2   2:28.31,5  (2250)  M110     1441. 18,029 ¦  1:31.29  307.¦ 3:07.17  329.¦ 3:40.02  364.¦   32.44  483.¦ 5:20.28  418.¦
  415. Zaffarese Mimmo      63 Lucca                Kulmine Wac                      6:06.27,9   2:28.55,2  (9281)  M110     1444. 18,009 ¦  1:37.39  427.¦ 3:20.38  426.¦ 3:51.38  428.¦   30.59  432.¦ 5:18.25  410.¦
  416. Ledda Frank          64 D-Remseck            RSV Vaihingen                    6:07.13,8   2:29.41,1  (7902)  M110     1447. 17,972 ¦  1:34.22  365.¦ 3:26.29  456.¦ 3:56.11  446.¦   29.41  379.¦ 5:24.16  425.¦
  417. Sbaraglia Davide     64 Borgo Sisa di Ravenn Sport Service Team               6:07.25,2   2:29.52,5  (2663)  M110     1452. 17,963 ¦  1:35.56  393.¦ 3:12.52  388.¦ 3:41.29  374.¦   28.36  327.¦ 5:23.16  422.¦
  418. Giacovaz Giorgio     65 Turriaco GO          GS Roby Calzature                6:07.32,3   2:29.59,6  (5089)  M110     1454. 17,957 ¦  1:36.50  416.¦ 3:24.15  444.¦ 3:56.08  445.¦   31.53  457.¦ 5:24.02  424.¦
  419. Paolucci Roberto     61 Savignano sul Rubico G.S. MEDINOX                     6:07.45,4   2:30.12,7  (6485)  M110     1456. 17,946 ¦  1:39.12  450.¦ 3:23.00  437.¦ 3:53.35  434.¦   30.35  410.¦ 5:18.53  412.¦
  420. Holzapfel Rudolf     61 D-München                                             6:07.48,3   2:30.15,6  (7658)  M110     1457. 17,944 ¦  1:38.47  443.¦ 3:28.38  475.¦ 3:57.43  458.¦   29.05  354.¦ 5:19.45  414.¦
  421. Borelli Stefano      64 Cesate               Ciclistica Bruzzano              6:08.57,0   2:31.24,3  (2795)  M110     1472. 17,888 ¦  1:30.23  281.¦ 3:07.20  331.¦ 3:36.51  335.¦   29.30  375.¦ 5:13.16  386.¦
  422. Tanaka Katsuhiko     65 JPN-1175 Tsuchiura                                    6:08.59,4   2:31.26,7  (2236)  M110     1474. 17,886 ¦  1:31.06  298.¦ 3:12.06  381.¦ 3:42.42  383.¦   30.36  411.¦ 5:14.41  390.¦
  423. Failer Peter         64 D-Kiemertshofen      Radteam Aichach 2000             6:09.18,2   2:31.45,5  (7209)  M110     1478. 17,871 ¦  1:42.18  487.¦ 3:29.43  478.¦ 3:56.56  451.¦   27.13  253.¦ 5:23.10  421.¦
  424. Rami Paolo           65 Cicognara            SC Viadanese                     6:10.14,6   2:32.41,9  (5376)  M110     1486. 17,826 ¦  1:33.10  347.¦ 3:14.12  402.¦ 3:46.57  407.¦   32.45  484.¦ 5:23.34  423.¦
  425. Hofmann Rainer       62 D-Langensendelbach   SV Langensendelbach              6:11.14,5   2:33.41,8  (5292)  M110     1496. 17,778 ¦  1:41.03  471.¦ 3:21.09  428.¦ 3:51.55  430.¦   30.46  420.¦ 5:25.36  428.¦
  426. Salerno Umberto      66 Torchiara (SA)       Bici Paestum-Ciclidea            6:11.22,3   2:33.49,6  (3726)  M110     1499. 17,771 ¦  1:43.24  501.¦ 3:23.22  439.¦ 3:55.06  441.¦   31.43  453.¦ 5:26.13  432.¦
  427. Striuli Alberto      61 I                    GS La Salute - S Giorgio         6:12.02,0   2:34.29,3  (2572)  M110     1506. 17,740 ¦     ----  ----¦ 3:23.28  440.¦ 3:53.59  435.¦   30.30  409.¦ 5:26.29  435.¦
  428. Fagandini Fabio      63 Noceto               GC Monta in Bici                 6:12.26,6   2:34.53,9  (7206)  M110     1511. 17,720 ¦  1:39.04  448.¦ 3:21.50  430.¦ 3:50.30  421.¦   28.39  331.¦ 5:26.22  434.¦
  429. Scarica Michele      62 Noceto               GC Monta in Bici                 6:13.04,0   2:35.31,3  (8704)  M110     1515. 17,691 ¦  1:38.24  436.¦ 3:22.10  432.¦ 3:51.06  425.¦   28.56  351.¦ 5:26.59  436.¦
  430. Bergerhoff Andre     63 D-St. Wendel                                          6:13.47,6   2:36.14,9  (3937)  M110     1524. 17,656 ¦  1:37.38  426.¦ 3:29.53  479.¦ 3:57.39  457.¦   27.46  286.¦ 5:24.17  426.¦
  431. Reichel Martin       61 D-München            Radteam Aichach 2000             6:13.56,3   2:36.23,6  (4903)  M110     1529. 17,649 ¦  1:44.09  510.¦ 3:29.11  476.¦ 3:59.51  466.¦   30.39  416.¦ 5:33.35  459.¦
  432. Gerin Stefano        63 Fogliano             GS Roby Calzature                6:14.29,1   2:36.56,4  (1808)  M110     1534. 17,624 ¦  1:43.44  505.¦ 3:31.52  494.¦ 4:01.33  476.¦   29.41  378.¦ 5:29.08  441.¦
  433. Pizzin Luca          62 S. Pietro d'Isonzo   GS Roby Calzature                6:14.31,2   2:36.58,5  (1806)  M110     1536. 17,622 ¦  1:43.51  507.¦ 3:31.13  491.¦ 4:03.07  481.¦   31.53  458.¦ 5:31.00  445.¦
  434. Travan Roberto       62 Monfalcone           Team Sclauzero-Starbene          6:14.40,2   2:37.07,5  (2756)  M110     1537. 17,615 ¦  1:42.16  486.¦ 3:18.46  414.¦ 3:52.41  432.¦   33.54  521.¦ 5:33.38  460.¦
  435. Raccamari Mauro      66 Treviso              G.S. PIOGGIA IN FACCIA           6:15.04,3   2:37.31,6  (3991)  M110     1539. 17,596 ¦  1:31.53  318.¦ 3:09.49  354.¦ 3:43.41  391.¦   33.52  518.¦ 5:22.46  420.¦
  436. Pinton Mimo          61 GRISIGNANO DI ZOCCO  Gr.ciclisti grisignano           6:15.10,9   2:37.38,2  (8432)  M110     1542. 17,591 ¦  1:37.07  419.¦ 3:24.25  445.¦ 3:54.21  437.¦   29.56  390.¦ 5:30.50  444.¦
  437. Capellaro Giampiero  61 Costigliole Saluzzo  GC Cucchietti                    6:15.19,5   2:37.46,8  (6288)  M110     1543. 17,584 ¦     ----  ----¦ 3:16.09  405.¦ 3:45.27  400.¦   29.18  363.¦ 5:29.56  443.¦
  438. Anselmi Luca         64 Siena                Bulletta Bike                    6:16.21,2   2:38.48,5  (6194)  M110     1552. 17,536 ¦  1:37.15  421.¦ 3:25.50  453.¦ 3:56.33  449.¦   30.42  418.¦ 5:22.46  419.¦
  439. Molinelli Pietro     61 Budrio               Cralposte Bologna                6:16.23,0   2:38.50,3  (6301)  M110     1553. 17,535 ¦  1:31.29  306.¦ 3:15.54  404.¦ 3:46.33  406.¦   30.38  413.¦ 5:31.06  447.¦
  440. Grassetti Paride     64 Sarnano              AS Planet Fitness                6:17.04,4   2:39.31,7  (2764)  M110     1561. 17,503 ¦  1:45.39  532.¦ 3:30.35  484.¦ 4:02.10  477.¦   31.35  447.¦ 5:31.01  446.¦
  441. Grassetti Piero      61 Sarnano              AS Planet Fitness                6:17.06,8   2:39.34,1  (2763)  M110     1562. 17,501 ¦  1:45.21  527.¦ 3:30.38  486.¦ 4:02.42  480.¦   32.03  465.¦ 5:33.21  456.¦
  442. Maso Ugo             62 Pianiga              Fans Grande Ciclismo             6:17.14,7   2:39.42,0  (6196)  M110     1564. 17,495 ¦  1:40.29  463.¦ 3:39.04  529.¦ 4:09.04  512.¦   29.59  393.¦ 5:33.20  455.¦
  443. Gay Jürgen           63 D-München            Radteam Aichach 2000             6:17.24,2   2:39.51,5  (4885)  M110     1565. 17,487 ¦  1:29.57  264.¦ 3:11.21  368.¦    ----  ----¦    ----  ----¦ 5:19.54  415.¦
  444. Lucidi Gabriele      62 Porto San Giorgio    S.A.C.E.                         6:17.48,8   2:40.16,1  (7969)  M110     1568. 17,468 ¦  1:43.56  508.¦ 3:25.21  450.¦ 3:58.39  460.¦   33.18  501.¦ 5:25.34  427.¦
  445. Serafinelli Gianni   66 Cellere              Polisportiva Montalto            6:18.01,9   2:40.29,2  (4317)  M110     1571. 17,458 ¦  1:40.06  460.¦ 3:25.59  454.¦ 3:57.05  454.¦   31.06  437.¦ 5:25.38  429.¦
  446. Guidi Davide         64 Varallo              UC Pratese                       6:18.04,5   2:40.31,8  (2900)  M110     1572. 17,456 ¦  1:40.05  458.¦ 3:27.00  458.¦ 3:57.06  455.¦   30.05  401.¦ 5:31.30  448.¦
  447. Borciani Maurizio    63 Correggio            Polisportiva Correggio           6:18.15,9   2:40.43,2  (6107)  M110     1576. 17,448 ¦  1:41.51  481.¦ 3:40.38  538.¦ 4:12.41  525.¦   32.02  463.¦ 5:37.18  470.¦
  448. Grasselli Giovanni   64 Castelnovo Monti RE  Università del Pedale            6:18.16,9   2:40.44,2  (7465)  M110     1577. 17,447 ¦  1:38.22  435.¦ 3:19.49  418.¦ 3:50.53  423.¦   31.03  435.¦ 5:25.42  430.¦
  449. Bauhofer Joerg       64 D-München            Gette von Anna und Leon          6:18.46,3   2:41.13,6  (6611)  M110     1580. 17,424 ¦  1:38.44  442.¦ 3:22.45  435.¦ 3:53.29  433.¦   30.44  419.¦ 5:27.27  437.¦
  450. Kinzelmann Ralf      65 D-Baienfurt          Radsport Bergatreute             6:19.10,4   2:41.37,7  (7775)  M110     1589. 17,406 ¦  1:43.24  502.¦ 3:28.14  473.¦ 3:58.54  463.¦   30.39  415.¦ 5:32.19  449.¦
  451. Hagen Wolfgang       66 D-Dirlewang          VC Mindelheim                    6:19.22,7   2:41.50,0  (7549)  M110     1592. 17,396 ¦  1:40.50  470.¦ 3:30.48  487.¦ 4:00.40  471.¦   29.52  386.¦ 5:29.30  442.¦
  452. Ferri Stefano        66 Modena               Ali dorate                       6:19.32,0   2:41.59,3  (3913)  M110     1596. 17,389 ¦  1:37.54  431.¦ 3:29.31  477.¦ 4:00.02  467.¦   30.30  408.¦ 5:33.20  454.¦
  453. Repper Willi         61 D-Moosinning         Lech Angels                      6:19.36,2   2:42.03,5  (1564)  M110     1598. 17,386 ¦  1:32.32  332.¦ 3:13.18  390.¦ 3:45.21  399.¦   32.03  464.¦ 5:27.38  438.¦
  454. Lancellotti Claudio  64 Modena               Avis iaccobike                   6:19.36,3   2:42.03,6  (3916)  M110     1599. 17,386 ¦  1:38.40  439.¦ 3:27.56  471.¦ 4:00.17  468.¦   32.21  474.¦ 5:38.04  472.¦
  455. Flad Uwe             64 D-Sonnenbühl         TSV Undingen                     6:20.39,3   2:43.06,6  (7285)  M110     1612. 17,338 ¦  1:37.48  429.¦ 3:18.55  415.¦ 3:59.38  464.¦   40.43  586.¦ 5:36.19  468.¦
  456. Popp Willi           62 D-Dietenhofen        SC Rügland                       6:21.27,4   2:43.54,7  (8473)  M110     1623. 17,302 ¦  1:45.58  535.¦ 3:31.42  492.¦ 4:08.11  511.¦   36.29  562.¦ 5:41.06  483.¦
  457. Naumann Matthias     61 D-Hamburg                                             6:21.50,7   2:44.18,0  (8245)  M110     1625. 17,284 ¦  1:34.37  370.¦ 3:27.16  462.¦ 3:54.23  438.¦   27.06  248.¦ 5:33.00  451.¦
  458. Bannies Lutz         65 D-Hamburg                                             6:21.53,1   2:44.20,4  (6576)  M110     1627. 17,282 ¦  1:34.51  374.¦ 3:27.14  461.¦ 3:55.34  443.¦   28.20  304.¦ 5:33.05  452.¦
  459. Pinelli Antonio Giov 61 LUCCA - San Macario  Piemmesport Team                 6:22.31,1   2:44.58,4  (8428)  M110     1632. 17,254 ¦  1:29.07  253.¦ 3:16.52  408.¦ 3:46.07  405.¦   29.14  361.¦ 5:28.52  440.¦
  460. Rezzonico Flavio     62 Binago CO            GC Binago                        6:23.08,4   2:45.35,7  (8563)  M110     1640. 17,226 ¦  1:33.36  354.¦ 3:22.47  436.¦ 3:51.09  426.¦   28.22  310.¦ 5:28.02  439.¦
  461. Lucarini Marco       65 Bologna              CircoloDipendentiUniversitari    6:23.16,0   2:45.43,3  (3588)  M110     1643. 17,220 ¦  2:07.49  597.¦ 3:46.18  564.¦ 4:15.45  541.¦   29.26  369.¦ 5:40.33  479.¦
  462. Bonassoli Marco      62 Alzano Lombardo      GS Speedy Sport Speedylonga      6:23.24,1   2:45.51,4  (2261)  M110     1644. 17,214 ¦  1:41.49  480.¦ 3:20.33  424.¦ 3:51.27  427.¦   30.53  429.¦ 5:26.18  433.¦
  463. Volpi Tiziano        66 Prato                U.S. BABBINI CIPRIANI GESTRI     6:23.45,7   2:46.13,0  (9171)  M110     1650. 17,198 ¦  1:43.23  500.¦ 3:30.09  483.¦ 4:03.13  484.¦   33.04  495.¦ 5:41.42  485.¦
  464. Benvenuti Niccolo    61 San Condordio C.DA.  G.S. PIEMMESPORT TEAM            6:24.30,1   2:46.57,4  (6657)  M110     1660. 17,165 ¦  1:32.20  327.¦ 3:12.45  387.¦ 3:45.44  404.¦   32.58  494.¦ 5:35.26  465.¦
  465. Bianda Tarcisio      62 CH-Losone                                             6:24.41,8   2:47.09,1  (6009)  M110     1665. 17,156 ¦  1:46.38  543.¦ 3:33.03  509.¦ 4:05.30  497.¦   32.26  476.¦ 5:41.54  487.¦
  466. Lanne Dominique      62 F-Trans en Provence  E.S.LORGUES.CYCLO                6:25.22,5   2:47.49,8  (3585)  M110     1670. 17,126 ¦  1:42.37  491.¦ 3:26.09  455.¦ 3:57.02  452.¦   30.52  428.¦ 5:35.17  464.¦
  467. Bio Lelio            62 Castiglione F.       GS Cicli Gagliardini             6:25.22,8   2:47.50,1  (3035)  M110     1671. 17,125 ¦  1:36.59  418.¦ 3:28.22  474.¦ 3:57.06  456.¦   28.44  338.¦ 5:39.47  476.¦
  468. Giancola Marcello    63 Montalto di Castro   Polisportiva Montalto            6:25.25,9   2:47.53,2  (4330)  M110     1673. 17,123 ¦  1:41.41  478.¦ 3:27.46  469.¦ 4:01.13  474.¦   33.26  508.¦ 5:34.27  461.¦
  469. Fumarola Antonio     61 Chieri               Antares team                     6:25.49,5   2:48.16,8  (6059)  M110     1677. 17,106 ¦  1:36.32  404.¦ 3:22.22  433.¦ 3:55.08  442.¦   32.45  484.¦ 5:40.43  481.¦
  470. Gieling Sjaak        61 NL-Amsterdam                                          6:27.46,1   2:50.13,4  (7409)  M110     1704. 17,020 ¦  1:35.01  377.¦ 3:37.44  523.¦ 4:05.00  492.¦   27.16  255.¦ 5:38.00  471.¦
  471. Bauer Armin          63 D-Fichtenberg        Team Bike o Maniax               6:28.05,6   2:50.32,9  (6602)  M110     1710. 17,006 ¦  1:35.34  387.¦ 3:27.19  465.¦ 4:03.41  488.¦   36.21  560.¦ 5:43.01  489.¦
  472. Benvenuti Mauro      62 Poggio Berni         GS Olimpia Nuova                 6:29.02,2   2:51.29,5  (6656)  M110     1719. 16,964 ¦  1:38.58  444.¦ 3:24.10  443.¦ 3:57.04  453.¦   32.53  491.¦ 5:35.12  462.¦
  473. Cingolani Moreno     62 Jesi                 Jesi Cycling Team                6:29.35,2   2:52.02,5  (6980)  M110     1724. 16,941 ¦  1:45.11  524.¦ 3:30.36  485.¦ 4:02.37  479.¦   32.00  461.¦ 5:33.34  458.¦
  474. Ruppert Jürgen       63 D-Kaisheim           Radteam Aichach 2000             6:29.39,4   2:52.06,7  (4925)  M110     1725. 16,937 ¦     ----  ----¦ 3:20.08  421.¦ 3:49.34  415.¦   29.26  368.¦ 5:25.45  431.¦
  475. Fraccalanza Stefano  63 Padova               S.C. CICLI BERMA                 6:29.59,7   2:52.27,0  (7298)  M110     1727. 16,923 ¦  1:34.18  363.¦ 3:24.27  446.¦ 3:58.31  459.¦   34.04  531.¦ 5:43.20  493.¦
  476. Trampel Sven         65 D-Chemnitz           Velofreunde Biker Chemnitz       6:30.01,3   2:52.28,6  (9031)  M110     1728. 16,922 ¦  1:37.56  432.¦ 3:27.17  463.¦ 3:58.47  461.¦   31.30  445.¦ 5:35.16  463.¦
  477. Völkel Reimund       65 A-Tschagguns                                          6:30.48,1   2:53.15,4  (9166)  M110     1734. 16,888 ¦     ----  ----¦ 3:31.59  495.¦ 4:05.24  495.¦   33.25  507.¦ 5:42.27  488.¦
  478. Vohrer Uwe           61 D-Tübingen                                            6:30.50,6   2:53.17,9  (9162)  M110     1735. 16,886 ¦  1:36.38  408.¦ 3:32.07  498.¦ 4:06.12  501.¦   34.05  532.¦ 5:43.25  494.¦
  479. Da Lio Franco        66 Zelarino             BIESSE TEAM                      6:30.56,8   2:53.24,1  (3307)  M110     1737. 16,882 ¦  1:35.47  391.¦ 3:24.58  448.¦ 3:56.17  447.¦   31.18  441.¦ 5:39.20  474.¦
  480. Henkel Harald        61 D-Rügland                                             6:31.15,5   2:53.42,8  (6397)  M110     1742. 16,868 ¦  1:45.38  531.¦ 3:28.11  472.¦ 4:00.22  469.¦   32.11  467.¦ 5:35.37  466.¦
  480. Pedersoli Massimo    65 Tavernerio           RAMPI CLUB BRIANZA               6:31.15,5   2:53.42,8  (8374)  M110     1742. 16,868 ¦  1:31.32  308.¦ 3:24.32  447.¦ 3:56.32  448.¦   31.59  460.¦ 5:39.28  475.¦
  482. Damini Paolo         65 Parma                ARCI S. LEONARDO                 6:31.32,4   2:53.59,7  (3768)  M110     1745. 16,856 ¦  1:44.22  514.¦ 3:32.33  504.¦ 4:09.46  515.¦   37.13  568.¦ 5:44.36  497.¦
  483. Hertle Frank         66 D-Berghaupten        Ski-Club Berghaupten             6:31.32,9   2:54.00,2  (7615)  M110     1746. 16,856 ¦  1:36.36  407.¦ 3:19.34  417.¦ 3:50.53  424.¦   31.19  442.¦ 5:33.28  457.¦
  484. Koch Andrej          62 D-Chemnitz           Velofreunde Biker Chemnitz e.V   6:31.37,5   2:54.04,8  (7803)  M110     1747. 16,852 ¦  1:37.57  433.¦ 3:27.19  466.¦ 3:58.49  462.¦   31.30  444.¦ 5:36.53  469.¦
  485. Dijkstra Kees        65 NL-VS Apeldoorn      A.R.&T.V. De Adelaar             6:31.46,4   2:54.13,7  (3088)  M110     1750. 16,846 ¦  1:52.12  573.¦ 3:34.18  515.¦ 4:06.59  508.¦   32.40  481.¦ 5:46.12  501.¦
  486. Del Mancino Ermando  63 Massa                VF M. Pelliccia                  6:31.49,6   2:54.16,9  (7087)  M110     1753. 16,844 ¦  1:36.45  414.¦ 3:32.17  501.¦ 4:06.16  502.¦   33.58  526.¦ 5:40.17  477.¦
  487. Schmidt Henrik       63 D-Coburg                                              6:31.57,2   2:54.24,5  (4173)  M110     1757. 16,838 ¦  1:47.16  547.¦ 3:40.40  539.¦ 4:15.07  536.¦   34.27  542.¦ 5:46.41  503.¦
  488. Bucher Steffen       61 D-Duisburg           ASV Duisburg                     6:31.57,4   2:54.24,7  (6843)  M110     1758. 16,838 ¦  1:41.42  479.¦ 3:23.05  438.¦ 3:59.41  465.¦   36.35  564.¦ 5:41.06  482.¦
  489. Cappagli Antonio     64 Carrara              VF M. Pelliccia                  6:32.12,9   2:54.40,2  (6890)  M110     1761. 16,827 ¦  1:36.55  417.¦ 3:32.28  503.¦ 4:06.26  505.¦   33.57  523.¦ 5:40.26  478.¦
  490. Wagner Klaus         61 D-München            Lech Angels                      6:32.14,4   2:54.41,7  (1472)  M110     1762. 16,826 ¦  1:31.11  300.¦ 3:20.20  423.¦ 3:55.03  440.¦   34.43  545.¦ 5:32.35  450.¦
  491. Bandiera Bruno       63 Musano di Trevignano Granfondo Pinarello              6:32.16,4   2:54.43,7  (2256)  M110     1764. 16,825 ¦  1:49.55  565.¦ 3:38.31  527.¦ 4:13.49  530.¦   35.18  554.¦ 5:51.40  524.¦
  492. Dehn Michael         63 D-Pürgen                                              6:33.06,6   2:55.33,9  (7079)  M110     1772. 16,789 ¦  1:40.31  465.¦ 3:30.08  482.¦ 4:01.06  473.¦   30.57  430.¦ 5:35.52  467.¦
  493. Krätzig Oliver       64 D-Duisburg           ASV Duisburg                     6:34.02,4   2:56.29,7  (7833)  M110     1779. 16,749 ¦  1:37.26  424.¦ 3:20.03  420.¦ 3:50.19  420.¦   30.16  402.¦ 5:43.10  492.¦
  494. Nicolai Heiko        66 D-Unterföhring       TSV Unterföhring                 6:34.05,2   2:56.32,5  (8268)  M110     1780. 16,747 ¦  1:38.59  445.¦ 3:27.11  460.¦ 3:55.59  444.¦   28.48  343.¦ 5:51.49  525.¦
  495. Navarra Mauro        61 Ferrara              DLF Ferrara                      6:34.09,5   2:56.36,8  (6452)  M110     1782. 16,744 ¦  1:45.14  526.¦ 3:32.26  502.¦ 4:06.20  504.¦   33.54  520.¦ 5:46.42  504.¦
  496. Schmuker Lothar      61 D-Blaubeuren         TSV Seissen                      6:34.09,9   2:56.37,2  (8770)  M110     1783. 16,744 ¦  1:48.51  551.¦ 3:37.43  522.¦ 4:11.12  521.¦   33.29  509.¦ 5:46.55  505.¦
  497. Giuntini Davide      61 San Casciano Val di  GS La Lumaca                     6:34.17,1   2:56.44,4  (7430)  M110     1786. 16,739 ¦  1:40.35  466.¦ 3:39.04  528.¦ 4:12.12  523.¦   33.08  497.¦ 5:43.09  491.¦
  498. Casini Alessandro    62 S.Casciano Val di Pe GS La Lumaca                     6:34.17,5   2:56.44,8  (6916)  M110     1787. 16,738 ¦  1:33.55  360.¦ 3:05.54  322.¦ 3:48.23  411.¦   42.28  590.¦ 5:43.08  490.¦
  499. Colli Sergio         61 Castelnuovo Rangone  Pol. gino nasi                   6:34.25,4   2:56.52,7  (1990)  M110     1791. 16,733 ¦  1:44.49  519.¦ 3:31.04  489.¦ 4:03.20  485.¦   32.15  471.¦ 5:41.25  484.¦
  500. Ruhl Matthias        64 D-Pohlheim           SV Garbenteich                   6:34.32,4   2:56.59,7  (8640)  M110     1794. 16,728 ¦  1:43.27  503.¦ 3:30.00  480.¦ 4:02.35  478.¦   32.35  480.¦ 5:41.53  486.¦
  501. Adami Ugo            65 Chiampo              Ciclismo Valchiampo              6:34.37,3   2:57.04,6  (6245)  M110     1796. 16,724 ¦  1:42.28  489.¦ 3:33.51  514.¦ 4:06.44  507.¦   32.52  490.¦ 5:44.52  498.¦
  502. Giolitto Davide      64 Rimini               GS Marin MTB Cicli Matteoni      6:35.01,6   2:57.28,9  (4446)  M110     1798. 16,707 ¦  1:59.21  590.¦ 3:37.24  521.¦ 4:09.56  517.¦   32.31  478.¦ 5:52.55  528.¦
  503. Ruffilli Fausto      65 Rimini               GS Marin MTB Cicli Matteoni      6:35.01,8   2:57.29,1  (4435)  M110     1799. 16,707 ¦  1:59.21  591.¦ 3:37.45  524.¦ 4:10.37  518.¦   32.51  489.¦ 5:52.56  529.¦
  504. Korber Helmut        63 D-Steinkirchen       Radteam Aichach 2000             6:35.42,6   2:58.09,9  (7823)  M110     1803. 16,678 ¦  1:37.15  420.¦ 3:39.52  533.¦ 4:09.47  516.¦   29.54  388.¦ 5:46.02  500.¦
  505. Visentin Pietro      66 VILLORBA (TREVISO)   U.C. VILLORBA                    6:36.02,2   2:58.29,5  (3874)  M110     1804. 16,665 ¦  1:46.11  539.¦ 3:32.13  499.¦ 4:03.57  489.¦   31.43  454.¦ 5:40.34  480.¦
  506. Ermini Stefano       61 Firenze              Team le lame probike             6:36.17,2   2:58.44,5  (2905)  M110     1808. 16,654 ¦  1:40.47  468.¦ 3:33.00  508.¦ 4:05.58  500.¦   32.58  493.¦ 5:47.13  507.¦
  507. Fritz Anton          61 D-Augsburg           Radteam Aichach 2000             6:36.41,9   2:59.09,2  (4835)  M110     1811. 16,637 ¦  1:43.23  499.¦ 3:27.42  467.¦ 4:12.01  522.¦   44.18  593.¦ 5:48.04  509.¦
  508. Betz Bernhard        64 D-Regensburg         RSC '88 Regensburg               6:37.01,8   2:59.29,1  (6692)  M110     1813. 16,623 ¦  1:36.40  410.¦ 3:11.53  378.¦ 3:41.37  376.¦   29.44  381.¦ 5:38.56  473.¦
  509. Christoph Jaroslav   64 CZ-Rychnov nad Knezn LBC Nove Mesto nad Metuji        6:37.03,6   2:59.30,9  (6967)  M110     1814. 16,622 ¦  1:38.30  438.¦ 3:41.03  541.¦ 4:15.01  534.¦   33.57  524.¦ 5:52.01  526.¦
  510. Hoffmann Joerg       66 A-Guetersloh                                          6:38.44,3   3:01.11,6  (7644)  M110     1826. 16,552 ¦  1:44.31  515.¦ 3:41.07  542.¦ 4:15.07  535.¦   33.59  527.¦ 5:50.45  516.¦
  511. Masetti Zannini Gior 64 Bologna              Team Salieri                     6:38.46,2   3:01.13,5  (1024)  M110     1828. 16,550 ¦  1:35.02  378.¦ 3:34.34  516.¦ 4:05.22  494.¦   30.48  423.¦ 5:43.28  495.¦
  512. Cardoni Romualdo     63 Filottrano           GC Settecolli                    6:39.11,1   3:01.38,4  (6897)  M110     1834. 16,533 ¦  1:50.37  567.¦ 3:42.25  545.¦ 4:13.40  529.¦   31.15  439.¦ 5:46.39  502.¦
  513. Weber Markus         63 D-Gmund              Lech Angels                      6:39.13,5   3:01.40,8  (1522)  M110     1835. 16,532 ¦  1:45.25  529.¦ 3:41.28  543.¦ 4:15.16  538.¦   33.48  514.¦ 5:50.58  518.¦
  514. Esposito Massimo     66 Caluso               Team azimut                      6:39.34,0   3:02.01,3  (3810)  M110     1837. 16,517 ¦  1:41.16  474.¦ 3:31.13  490.¦ 4:05.34  498.¦   34.21  538.¦ 5:49.28  512.¦
  515. Verlengia Mariano    61 Casoli               Ciclo Club Giacinto Gentile Ca   6:39.51,0   3:02.18,3  (6338)  M110     1839. 16,506 ¦  1:40.36  467.¦ 3:36.58  520.¦ 4:09.29  514.¦   32.31  477.¦ 5:50.32  514.¦
  516. Zanchini Andrea      65 Russi                Pol. Bertolt Brecht              6:39.59,9   3:02.27,2  (2996)  M110     1840. 16,500 ¦  1:40.15  461.¦ 3:33.04  510.¦ 4:06.38  506.¦   33.34  511.¦ 5:47.13  506.¦
  517. Putorti Giuseppe     63 Armeno               Bicisportmottarone               6:40.14,8   3:02.42,1  (8504)  M110     1841. 16,489 ¦  1:42.58  495.¦ 3:32.59  507.¦ 4:07.23  509.¦   34.23  540.¦ 5:47.46  508.¦
  518. Zillert Bernd        64 D-Gaildorf           SV Eutendorf                     6:40.28,9   3:02.56,2  (9314)  M110     1844. 16,480 ¦  1:35.34  386.¦ 3:27.10  459.¦ 4:03.40  487.¦   36.29  563.¦ 5:51.39  523.¦
  519. Groeter Tino         66 D-Stuttgart                                           6:40.53,4   3:03.20,7  (7489)  M110     1851. 16,463 ¦  1:39.43  455.¦ 3:32.59  506.¦ 4:04.39  490.¦   31.40  450.¦ 5:45.02  499.¦
  520. Tarry Peter          61 GB-St.Albans, Hertfo Verulam Cycling Club             6:41.50,9   3:04.18,2  (8960)  M110     1860. 16,424 ¦  1:43.29  504.¦ 3:44.54  555.¦ 4:15.45  540.¦   30.51  426.¦ 5:55.20  533.¦
  521. Peukert Michael      66 D-Unterföhring       TSV Unterföhring                 6:42.04,1   3:04.31,4  (8403)  M110     1863. 16,415 ¦  1:43.01  496.¦ 3:33.29  512.¦ 4:06.18  503.¦   32.48  486.¦ 5:51.23  520.¦
  522. Reister Ulli         65 D-Germering          GS di Monaco                     6:42.09,1   3:04.36,4  (8554)  M110     1866. 16,411 ¦  1:39.33  452.¦ 3:27.44  468.¦ 4:05.12  493.¦   37.27  571.¦ 5:43.55  496.¦
  523. Scaccia Marco        65 Frosinone            INDIVIDUALE                      6:43.05,3   3:05.32,6  (3995)  M110     1871. 16,373 ¦  1:42.13  485.¦ 3:22.01  431.¦ 3:52.02  431.¦   30.00  394.¦ 5:33.06  453.¦
  524. Colla Davide         63 Parma                Arci Filippelli Vecchia Parma    6:43.32,1   3:05.59,4  (2627)  M110     1877. 16,355 ¦  1:44.49  518.¦ 3:42.02  544.¦ 4:15.08  537.¦   33.06  496.¦ 5:48.40  510.¦
  525. Moreau-Delacquis Nic 65 F-Compiegne          Levallois Sporting Club          6:43.41,4   3:06.08,7   (101)  M110     1879. 16,349 ¦  1:32.28  331.¦ 3:26.42  457.¦ 4:00.30  470.¦   33.48  515.¦ 5:51.28  522.¦
  526. Lammich Harry        61 D-Kirchheim                                           6:43.42,3   3:06.09,6  (7871)  M110     1880. 16,348 ¦  1:48.59  553.¦ 3:32.17  500.¦ 4:03.09  482.¦   30.52  427.¦ 5:57.09  540.¦
  527. Milani Andrea        62 Lendinara            G.S.C. "DAI DAI" Villanova del   6:43.45,2   3:06.12,5  (3666)  M110     1881. 16,346 ¦  1:42.11  484.¦ 3:31.48  493.¦ 4:09.09  513.¦   37.21  569.¦ 5:49.07  511.¦
  528. Zappa Marco          62 Novara               UC Ternatese                     6:43.57,0   3:06.24,3  (6432)  M110     1886. 16,338 ¦  1:42.29  490.¦ 3:43.40  548.¦ 4:17.52  549.¦   34.11  535.¦ 5:50.39  515.¦
  529. Petrucciani Mario    62 Campobasso           TEAM BICI SPORT MERLO            6:44.03,5   3:06.30,8  (2140)  M110     1887. 16,334 ¦  1:45.08  523.¦ 3:30.07  481.¦ 4:03.27  486.¦   33.20  505.¦ 5:50.27  513.¦
  530. Schmitt Andreas      65 D-Bamberg                                             6:44.15,7   3:06.43,0  (3920)  M110     1889. 16,326 ¦  1:43.03  497.¦ 3:25.11  449.¦ 4:00.52  472.¦   35.41  557.¦ 5:51.24  521.¦
  531. Thoma Martin         66 D-Penzberg                                            6:44.30,0   3:06.57,3  (8985)  M110     1891. 16,316 ¦  1:45.12  525.¦ 3:45.08  558.¦ 4:13.57  532.¦   28.48  342.¦ 5:57.48  543.¦
  532. Stumreich Alexander  64 A-Mieders                                             6:44.48,7   3:07.16,0  (3873)  M110     1894. 16,303 ¦  1:41.17  475.¦ 3:32.54  505.¦ 4:07.50  510.¦   34.56  547.¦ 5:54.21  532.¦
  533. Leitner Manfred      62 A-LINZ               Askö Linz/Steg                   6:45.12,4   3:07.39,7  (7911)  M110     1899. 16,287 ¦  1:46.06  538.¦ 3:38.28  526.¦ 4:16.21  544.¦   37.53  576.¦ 5:58.19  544.¦
  534. Valentini Daniele    62 Fornovo di Taro      Arci Filippelli Vecchia Parma    6:46.12,8   3:08.40,1  (2626)  M110     1905. 16,247 ¦  1:44.21  513.¦ 3:43.33  547.¦ 4:15.50  542.¦   32.17  472.¦ 5:50.51  517.¦
  535. Lüdecke Axel         64 D-Bensheim                                            6:46.28,2   3:08.55,5  (7970)  M110     1908. 16,237 ¦  1:45.58  536.¦ 3:39.35  532.¦ 4:13.56  531.¦   34.20  536.¦ 6:00.01  548.¦
  536. Ligabue Patrizio     61 Correggio            Polisportiva Correggio           6:46.48,6   3:09.15,9  (6106)  M110     1912. 16,223 ¦  1:49.17  558.¦ 3:40.47  540.¦ 4:15.26  539.¦   34.39  543.¦ 5:59.57  547.¦
  537. Kopp Rochus          62 D-Coburg                                              6:47.08,0   3:09.35,3  (4184)  M110     1917. 16,210 ¦  1:42.50  494.¦ 3:27.17  464.¦ 4:01.15  475.¦   33.58  525.¦ 5:56.42  538.¦
  538. Rocchetto Daniele    64 Chiusa               C.S.Rodes Gherdeina              6:47.11,5   3:09.38,8  (3218)  M110     1918. 16,208 ¦  1:52.03  571.¦ 3:51.51  583.¦ 4:22.31  565.¦   30.40  417.¦ 5:55.27  534.¦
  539. Savorani Giovanni    64 Faenza               Damiano De Veuster               6:47.14,4   3:09.41,7  (6459)  M110     1920. 16,206 ¦  1:49.40  562.¦ 3:35.22  517.¦ 4:13.17  527.¦   37.55  577.¦ 5:56.03  536.¦
  540. Bricoli Maurizio     64 Parma                Cus parma monpiù                 6:47.34,2   3:10.01,5  (3910)  M110     1922. 16,193 ¦  1:37.49  430.¦ 3:45.40  561.¦ 4:19.47  556.¦   34.07  533.¦ 5:53.32  530.¦
  541. Spocci Alberto       65 Parma                Circolo Dipendenti Sanita' PR    6:47.36,1   3:10.03,4  (2293)  M110     1923. 16,192 ¦  1:38.42  440.¦ 3:45.43  562.¦ 4:19.53  557.¦   34.10  534.¦ 5:56.01  535.¦
  542. Amodeo Gaspare       66 Palermo              GS Totò Cannatella               6:48.21,8   3:10.49,1  (2948)  M110     1930. 16,162 ¦  1:42.47  493.¦ 3:44.59  556.¦ 4:18.11  550.¦   33.12  498.¦ 6:02.44  557.¦
  543. Bettiol Gabriele     61 villorba (tv)        Team diavoli del montello        6:48.44,1   3:11.11,4  (3366)  M110     1934. 16,147 ¦  1:52.08  572.¦ 3:46.53  566.¦ 4:21.53  562.¦   35.00  550.¦ 6:01.04  550.¦
  544. Jusen Frank          66 D-Bonn                                                6:49.58,2   3:12.25,5  (7721)  M110     1946. 16,098 ¦  1:49.48  564.¦ 3:42.52  546.¦ 4:17.32  547.¦   34.39  544.¦ 6:00.18  549.¦
  545. Hermann Dietmar      61 D-Westernohe         Club-Frohsinn                    6:50.25,3   3:12.52,6  (7613)  M110     1947. 16,081 ¦  1:46.37  542.¦ 3:44.21  550.¦ 4:14.10  533.¦   29.49  383.¦ 6:02.01  556.¦
  546. Tarasconi Domenico   63 Vezzano Ligure       Ass. Sportiva Golfo dei Poeti    6:51.22,5   3:13.49,8  (8955)  M110     1960. 16,043 ¦  1:48.20  549.¦ 3:31.03  488.¦ 4:04.59  491.¦   33.56  522.¦ 5:51.13  519.¦
  547. Piva Maurizio        63 Tamara (FE)          Ciclo Sport Millo                6:51.55,5   3:14.22,8  (3895)  M110     1967. 16,022 ¦  1:53.47  579.¦ 3:55.26  593.¦ 4:29.47  587.¦   34.20  537.¦ 5:59.00  546.¦
  548. Macovaz Maurizio     64 Pordenone            G.C. AMICI DEL PEDALE - SACILE   6:52.01,1   3:14.28,4  (2086)  M110     1969. 16,018 ¦  1:41.53  482.¦ 3:33.06  511.¦ 4:18.37  553.¦   45.30  596.¦ 6:06.59  566.¦
  549. Chown Richard        62 USA-Teaneck - NJ     Tenafly Group                    6:52.32,2   3:14.59,5  (5189)  M110     1978. 15,998 ¦  1:53.01  577.¦ 3:49.42  574.¦ 4:27.34  581.¦   37.52  575.¦ 5:56.12  537.¦
  550. Penzes Werner        63 D-Hollenbach         Radteam Aichach 2000             6:53.04,1   3:15.31,4  (8389)  M110     1985. 15,977 ¦  1:44.56  521.¦ 3:40.05  535.¦ 4:17.44  548.¦   37.38  572.¦ 6:04.12  561.¦
  551. Stagnari Mauro       65 Calci                Team Bike Pisa 02                6:54.03,8   3:16.31,1  (2187)  M110     1992. 15,939 ¦  1:42.21  488.¦ 3:40.04  534.¦ 4:16.30  545.¦   36.26  561.¦ 6:05.17  564.¦
  552. Ferrari Stefano      62 Parma                Cus parma monpiù                 6:55.00,6   3:17.27,9  (3705)  M110     2005. 15,903 ¦  1:38.29  437.¦ 3:46.26  565.¦ 4:19.44  555.¦   33.17  500.¦ 6:01.20  552.¦
  553. Di Santo Stefano     63 Chirignago VE        Cicloturistica Portogruarese     6:55.28,4   3:17.55,7  (7110)  M110     2010. 15,885 ¦  1:45.31  530.¦ 3:32.00  497.¦ 4:05.41  499.¦   33.41  513.¦ 5:58.45  545.¦
  554. Carlini Stefano      66 Ferrara              Biga and bike                    6:55.42,2   3:18.09,5  (3736)  M110     2020. 15,876 ¦  1:46.27  541.¦ 3:44.46  553.¦ 4:18.35  552.¦   33.48  516.¦ 6:04.06  560.¦
  555. Jungkunz Thomas      63 D-Ansbach            FLZ Betriebssport                6:56.05,5   3:18.32,8  (7717)  M110     2025. 15,861 ¦  1:42.38  492.¦ 3:53.45  588.¦ 4:26.00  575.¦   32.14  469.¦ 6:04.02  559.¦
  556. Windisch Horst       62 D-Wendelstein                                         6:56.27,3   3:18.54,6  (9255)  M110     2029. 15,848 ¦  1:44.18  512.¦ 3:40.10  536.¦ 4:12.33  524.¦   32.23  475.¦ 6:01.06  551.¦
  557. Distler Klaus        61 D-Langensendalbach   SV Langensendelbach              6:56.27,9   3:18.55,2  (7125)  M110     2030. 15,847 ¦  1:37.27  425.¦ 3:31.59  496.¦ 4:03.13  483.¦   31.13  438.¦ 5:54.18  531.¦
  558. Haider Martin        66 D-Hollenbach         Radteam Aichach 2000             6:56.51,2   3:19.18,5  (4863)  M110     2035. 15,832 ¦  1:46.26  540.¦ 3:45.27  560.¦ 4:20.23  559.¦   34.56  549.¦ 6:04.34  563.¦
  559. Chierici Lidiano     61 Zola Pedrosa         GS Castello Bike                 6:56.53,0   3:19.20,3  (6383)  M110     2036. 15,831 ¦  1:49.28  561.¦ 3:51.52  584.¦ 4:23.47  571.¦   31.55  459.¦ 6:06.11  565.¦
  560. Crocicchia Marco     61 Capranica (VT)       GC Edil Strade Capranica         6:57.48,5   3:20.15,8  (6133)  M110     2041. 15,796 ¦  1:46.38  544.¦ 3:47.49  568.¦ 4:26.14  576.¦   38.24  579.¦ 6:13.53  574.¦
  561. Sting Joachim        64 D-Sonnenbühl         TSV Undingen                     6:57.50,3   3:20.17,6  (8916)  M110     2042. 15,795 ¦  1:56.37  587.¦ 3:44.07  549.¦ 4:22.35  567.¦   38.28  580.¦ 6:07.41  567.¦
  562. Gusmitta Paolo       64 Milano                                                6:58.01,7   3:20.29,0  (7525)  M110     2045. 15,788 ¦  1:45.50  533.¦ 3:45.11  559.¦ 4:18.33  551.¦   33.22  506.¦ 6:01.40  553.¦
  563. Arnet Martin         66 CH-Buchs                                              6:58.52,0   3:21.19,3  (6529)  M110     2054. 15,756 ¦  1:42.03  483.¦ 3:55.19  592.¦ 4:32.06  592.¦   36.47  566.¦ 6:04.13  562.¦
  564. Schmidt Rainer       66 D-Bremen                                              6:59.18,4   3:21.45,7  (8762)  M110     2055. 15,740 ¦     ----  ----¦ 3:39.23  531.¦ 4:13.23  528.¦   34.00  528.¦ 6:01.52  554.¦
  565. Harrer Klaus         66 D-Bergatreute        Radsport Bergatreute             6:59.31,1   3:21.58,4  (7567)  M110     2058. 15,732 ¦  1:44.57  522.¦ 3:33.42  513.¦ 4:05.28  496.¦   31.45  455.¦ 5:57.19  541.¦
  566. Cardin Francesco     61 Padova               Cicli Asteggiano                 6:59.55,1   3:22.22,4  (6895)  M110     2065. 15,717 ¦  1:47.39  548.¦ 3:48.27  571.¦ 4:22.54  570.¦   34.26  541.¦ 6:09.22  568.¦
  567. Muratori Oberdan     61 Poggio Berni         GS Olimpia Nuova                 7:01.21,6   3:23.48,9  (8227)  M110     2076. 15,663 ¦  1:45.52  534.¦ 3:45.49  563.¦ 4:21.57  563.¦   36.07  558.¦ 6:11.07  571.¦
  568. Brivio Michele       63 Missaglia            GS Perego                        7:01.35,0   3:24.02,3  (4637)  M110     2077. 15,655 ¦  1:41.15  473.¦ 3:23.57  442.¦ 3:56.40  450.¦   32.42  482.¦ 5:52.40  527.¦
  569. Koeppel Dan          62 I                    www.bikecamp.com                 7:02.41,9   3:25.09,2   (181)  M110     2086. 15,613 ¦  2:05.38  595.¦ 3:49.28  573.¦ 4:38.22  599.¦   48.54  599.¦ 6:18.51  581.¦
  570. Brocco Stefano       65 Torino               Individuale                      7:04.05,4   3:26.32,7  (4125)  M110     2098. 15,562 ¦  1:49.21  559.¦ 3:40.29  537.¦ 4:16.10  543.¦   35.40  556.¦ 6:09.58  569.¦
  571. Spanfelner Gerhard   63 D-Regensburg                                          7:05.09,1   3:27.36,4  (8881)  M110     2108. 15,523 ¦  1:44.36  516.¦ 3:53.08  586.¦ 4:25.59  574.¦   32.51  487.¦ 5:56.50  539.¦
  572. Rollo Antonio        62 Senigallia (AN)      Amici della bici                 7:05.59,3   3:28.26,6  (6456)  M110     2112. 15,493 ¦     ----  ----¦ 3:54.37  590.¦ 4:27.57  582.¦   33.19  503.¦ 6:17.54  580.¦
  573. Macchioni Corrado    65 CASALGRANDE (RE)                                      7:07.22,6   3:29.49,9  (3888)  M110     2124. 15,443 ¦  1:44.02  509.¦ 3:48.24  570.¦ 4:22.47  568.¦   34.22  539.¦ 6:13.41  573.¦
  574. Careddu Emanuele     65 Calangianus          GS Amspo Calangianus             7:07.23,7   3:29.51,0  (3926)  M110     2125. 15,442 ¦  1:44.12  511.¦ 3:44.25  552.¦ 4:19.21  554.¦   34.56  548.¦ 6:02.00  555.¦
  575. Leibfritz Bernd      64 D-Sonnenbuehl        TSV Undingen                     7:07.39,2   3:30.06,5  (7907)  M110     2127. 15,433 ¦  1:51.40  569.¦ 3:50.11  576.¦ 4:26.53  579.¦   36.41  565.¦ 6:17.27  578.¦
  576. Kattan Dietmar       64 D-München            GS di Monaco                     7:08.39,1   3:31.06,4  (7746)  M110     2130. 15,397 ¦  1:46.03  537.¦ 3:51.12  580.¦ 4:22.50  569.¦   31.37  448.¦ 6:14.43  575.¦
  577. Lattanzi Walter      62 D-Bad Vilbel         Ciclo Team Frankfurt             7:09.09,6   3:31.36,9  (7886)  M110     2132. 15,378 ¦  1:41.38  477.¦ 4:00.52  600.¦ 4:32.54  593.¦   32.01  462.¦ 6:17.13  577.¦
  578. Cernuta Lorenzo      66 Trieste              GS Roby Calzature                7:10.37,4   3:33.04,7  (6950)  M110     2143. 15,326 ¦  1:40.48  469.¦ 3:36.55  519.¦ 4:13.04  526.¦   36.09  559.¦ 5:57.35  542.¦
  579. Bergmann Johannes    63 D-Bernried           Lech Angels                      7:11.33,4   3:34.00,7  (1392)  M110     2157. 15,293 ¦  1:39.45  456.¦ 3:47.56  569.¦ 4:16.35  546.¦   28.38  329.¦ 6:03.44  558.¦
  580. Kunkel Stefan        66 D-München            Lech Angels                      7:11.42,7   3:34.10,0  (1407)  M110     2160. 15,287 ¦  1:43.12  498.¦ 3:48.51  572.¦ 4:22.32  566.¦   33.40  512.¦ 6:15.56  576.¦
  581. Koperski Ulrich      62 D-Hürth                                               7:12.37,3   3:35.04,6  (7820)  M110     2165. 15,255 ¦  1:49.01  554.¦ 3:52.18  585.¦ 4:27.12  580.¦   34.54  546.¦ 6:10.19  570.¦
  582. Lemmens Gums         61 NL-Voerendaal        Fietsclub Heerbaan               7:13.57,7   3:36.25,0  (4694)  M110     2174. 15,208 ¦  1:55.23  584.¦ 4:02.38  602.¦ 4:35.56  596.¦   33.18  501.¦ 6:24.33  591.¦
  583. Fontanesi Federico   61 Modena               GS Sportissimo Top Level         7:14.22,8   3:36.50,1  (7292)  M110     2178. 15,194 ¦  1:55.38  585.¦ 3:51.29  581.¦ 4:30.04  588.¦   38.34  581.¦ 6:21.26  587.¦
  584. Henzler Jörg         63 D-Schweich           Radsportclub Heilig Grab, Bopp   7:14.55,3   3:37.22,6  (7608)  M110     2181. 15,175 ¦  1:55.50  586.¦ 3:51.45  582.¦ 4:28.56  586.¦   37.10  567.¦ 6:19.35  582.¦
  585. Meisen Jochen        66 D-Mönchengladbach                                     7:14.57,3   3:37.24,6  (8098)  M110     2182. 15,173 ¦  1:49.23  560.¦ 3:54.16  589.¦ 4:26.26  578.¦   32.10  466.¦ 6:21.16  586.¦
  586. Mallmann Peter       61 D-Emmelshausen       RSC Heilig Grab Boppard          7:14.57,7   3:37.25,0  (8012)  M110     2183. 15,173 ¦  1:55.22  583.¦ 3:58.14  598.¦ 4:30.29  589.¦   32.15  470.¦ 6:19.38  583.¦
  587. Simon Ralf           64 D-Nürnberg           Wanderwannen e.V.                7:16.51,5   3:39.18,8  (8854)  M110     2197. 15,107 ¦  1:46.53  545.¦ 3:49.43  575.¦ 4:28.03  583.¦   38.20  578.¦ 6:19.52  584.¦
  588. Galimberti Marcello  66 Milano               GS Fior di Roccia                7:20.18,7   3:42.46,0  (7334)  M110     2207. 14,989 ¦  1:55.00  581.¦ 3:55.53  596.¦ 4:28.28  584.¦   32.35  479.¦ 6:21.59  588.¦
  589. Morgagni Pierluigi   65 Forlì                GC Quaglie Reali                 7:21.01,7   3:43.29,0  (6210)  M110     2209. 14,965 ¦  1:49.41  563.¦ 3:56.52  597.¦ 4:34.31  594.¦   37.39  574.¦ 6:30.12  600.¦
  590. Strzodka Georg       66 D-Herzogenaurach                                      7:23.49,2   3:46.16,5  (4363)  M110     2223. 14,870 ¦  1:57.54  589.¦ 3:55.10  591.¦ 4:36.10  597.¦   40.59  587.¦ 6:29.00  597.¦
  591. Cutrona Claudio      62 Bologna              POL.LAME VIBOLT                  7:24.16,5   3:46.43,8  (3391)  M110     2227. 14,855 ¦  1:55.09  582.¦ 3:44.24  551.¦ 4:26.25  577.¦   42.01  589.¦ 6:23.29  590.¦
  592. Parise Patrizio      64 San Remo             SANREMO BICI                     7:25.03,7   3:47.31,0  (2130)  M110     2229. 14,829 ¦  1:48.59  552.¦ 3:58.28  599.¦ 4:31.19  590.¦   32.51  488.¦ 6:26.41  594.¦
  593. Delucis Marco        62 Savona               GS Cicli Risi                    7:25.05,7   3:47.33,0  (6388)  M110     2230. 14,828 ¦  1:51.54  570.¦ 4:02.38  601.¦ 4:37.53  598.¦   35.15  552.¦ 6:29.44  598.¦
  594. Hamberger Stefan     63 D-München            GS di Monaco                     7:25.07,6   3:47.34,9  (7559)  M110     2231. 14,827 ¦  1:51.25  568.¦ 3:55.32  594.¦ 4:28.52  585.¦   33.19  504.¦ 6:35.29  604.¦
  595. Thieringer Bernd     62 D-herrenberg/kupping                                  7:25.41,8   3:48.09,1  (8984)  M110     2233. 14,808 ¦  1:49.15  557.¦ 3:47.04  567.¦ 4:20.19  558.¦   33.15  499.¦ 6:22.31  589.¦
  596. Winkelmann Dirk      62 D-Eschborn                                            7:26.21,5   3:48.48,8  (9258)  M110     2237. 14,786 ¦  1:53.53  580.¦ 3:51.03  579.¦    ----  ----¦    ----  ----¦ 6:33.52  601.¦
  597. Tomasi Gian Paolo    64 Brescia              G.C. Sforzacosta                 7:26.30,1   3:48.57,4  (9004)  M110     2238. 14,781 ¦  1:59.25  592.¦ 3:53.09  587.¦ 4:32.00  591.¦   38.50  583.¦ 6:25.47  593.¦
  598. Schneider Michael    62 D-Rügland                                             7:26.45,1   3:49.12,4  (6423)  M110     2239. 14,773 ¦  1:53.27  578.¦ 4:03.28  603.¦ 4:34.51  595.¦   31.23  443.¦ 6:19.57  585.¦
  599. Vanacci Enrico       65 Campi Bisenzio       UC Pedale Sangiorgese            7:27.41,7   3:50.09,0  (4681)  M110     2242. 14,742 ¦  2:02.02  594.¦ 4:09.36  609.¦ 4:54.00  605.¦   44.23  594.¦ 6:33.59  602.¦
  600. Geiger Andreas       63 D-Stuttgart                                           7:28.38,3   3:51.05,6  (4196)  M110     2247. 14,711 ¦  1:52.51  576.¦ 3:50.54  578.¦ 4:24.48  573.¦   33.53  519.¦ 6:17.28  579.¦
  601. Kühnel Wolfgang      62 D-Nürnberg           Lech Angels                      7:28.50,1   3:51.17,4  (1385)  M110     2249. 14,704 ¦  1:49.12  556.¦ 4:08.55  608.¦ 4:49.28  604.¦   40.33  585.¦ 6:37.37  605.¦
  602. Petrucci Sauro       61 Sant'Elpidio a Mare  GC Lucio Catalini                7:29.23,8   3:51.51,1  (6264)  M110     2251. 14,686 ¦  1:49.06  555.¦ 3:50.42  577.¦ 4:24.45  572.¦   34.02  530.¦ 6:29.46  599.¦
  603. Zimmermann Ulrich    63 D-München                                             7:30.57,6   3:53.24,9  (9317)  M110     2258. 14,635 ¦  1:36.40  412.¦ 3:38.22  525.¦ 4:21.35  561.¦   43.13  591.¦ 6:28.59  596.¦
  604. Schneider Jürgen     66 A-Kuchl                                               7:31.09,9   3:53.37,2  (3616)  M110     2259. 14,628 ¦     ----  ----¦    ----  ----¦ 3:33.34  316.¦    ----  ----¦ 6:50.39  611.¦
  605. Schädlich Bernd      63 D-Chemnitz                                            7:32.47,8   3:55.15,1  (8708)  M110     2267. 14,576 ¦  1:49.59  566.¦ 4:05.09  605.¦ 4:38.39  600.¦   33.29  510.¦ 6:27.54  595.¦
  606. Lasic Matjaz         62 SLO-LJUBLJANA        NOVICE EXTREME                   7:35.12,6   3:57.39,9  (7884)  M110     2269. 14,498 ¦  1:48.47  550.¦ 3:44.48  554.¦ 4:22.10  564.¦   37.22  570.¦ 6:38.59  606.¦
  607. Villino Claudio      65 D-Stuttgart          Justdive                         7:36.09,1   3:58.36,4  (9143)  M110     2272. 14,468 ¦  1:08.26   18.¦ 3:27.51  470.¦ 4:11.07  520.¦   43.15  592.¦ 6:24.54  592.¦
  608. Mannich Achim        65 D-München                                             7:39.01,4   4:01.28,7  (8027)  M110     2275. 14,378 ¦  1:52.23  574.¦ 4:07.48  606.¦ 4:39.29  602.¦   31.41  451.¦ 6:48.40  609.¦
  609. Neudecker  Walter    62 D-Teisendorf         S                                7:39.02,3   4:01.29,6  (8256)  M110     2276. 14,377 ¦  1:20.19  107.¦ 2:36.22  102.¦ 3:00.02  101.¦   23.40   93.¦ 6:12.40  572.¦
  610. Pickl Robert         63 D-Rosenheim                                           7:39.03,6   4:01.30,9  (8417)  M110     2277. 14,377 ¦  1:57.06  588.¦ 4:07.50  607.¦ 4:54.56  606.¦   47.05  597.¦ 6:49.09  610.¦
  611. Clauss Thomas        64 D-Filderstadt        Just Dive                        7:45.02,6   4:07.29,9  (4054)  M110     2294. 14,192 ¦  1:18.39   84.¦ 3:39.12  530.¦ 4:21.05  560.¦   41.53  588.¦ 6:34.15  603.¦
  612. Wulff Torsten        61 D-Vogtareuth         Lech Angels                      7:48.25,8   4:10.53,1  (1559)  M110     2298. 14,089 ¦  1:43.44  506.¦ 3:45.04  557.¦ 4:39.08  601.¦   54.04  601.¦ 6:46.33  607.¦
  613. Rullo Antonio        65 Bulgarograsso   (com Team Bike.Net                    7:49.46,0   4:12.13,3  (3611)  M110     2300. 14,049 ¦  1:52.32  575.¦ 3:55.39  595.¦ 4:40.32  603.¦   44.53  595.¦ 6:46.43  608.¦
  614. Dallabetta Luca      63 Trento               GS Pastorello trentofrutta       8:09.16,6   4:31.43,9  (2001)  M110     2319. 13,489 ¦  2:06.08  596.¦ 4:15.37  610.¦ 5:04.03  608.¦   48.25  598.¦ 7:07.18  612.¦
  615. Malpezzi Giovanni    66 Faenza               Damiano De Veuster               8:14.50,9   4:37.18,2  (6448)  M110     2322. 13,337 ¦  2:01.24  593.¦ 4:04.27  604.¦ 4:57.20  607.¦   52.53  600.¦ 7:09.42  613.¦
  616. Ricci Alessandro     63 Lucca                SRM Team                         5:13.36,7   Falzarego  (8568)  M110     2332.    --- ¦  1:31.02  297.¦ 3:08.38  346.¦ 3:43.57  392.¦   35.18  555.¦ 5:13.36  387.¦
  617. Masina Sergio        61 Forlì                TEAM SINTESI ITALPAGHE           3:20.50,1  Campolongo  (3982)  M110     2335.    --- ¦  1:28.07  232.¦ 2:54.23  241.¦ 3:20.50  235.¦   26.26  215.¦    ----  ----¦
  618. Höckner Wolfgang     62 A-Linz                                                4:10.40,0  Campolongo  (7635)  M110     2338.    --- ¦  1:44.37  517.¦ 3:36.50  518.¦ 4:10.40  519.¦   33.49  517.¦    ----  ----¦
  ---  Weindl Josef         61 D-Schrobenhausen     Radteam Aichach 2000            squalifica       -----  (9217)  M110              --- ¦     ----  ----¦    ----  ----¦ 1:38.38  ----¦    ----  ----¦    ----  ----¦

Results, images and data are provided for personal use only. Commercial use, redistribution in whole or part, and/or reprinting is prohibited.